<?xml version="1.0" encoding="UTF-8" standalone="no" ?>
<gpx xmlns="http://www.topografix.com/GPX/1/1" xmlns:xsi="http://www.w3.org/2001/XMLSchema-instance" xsi:schemaLocation="http://www.topografix.com/GPX/1/1 http://www.topografix.com/GPX/1/1/gpx.xsd" version="1.1" creator="VisuGPX - https://www.visugpx.com">
  <metadata>
    <name>Rousset Nève Aiglette Chironne</name>
    <desc><![CDATA[File with points/tracks from Locus Map/3.25.1]]></desc>
  </metadata>
  <trk>
    <name><![CDATA[F26150 Rousset Nève Aiglette Chironne JPT MC]]></name>
    <trkseg>
      <trkpt lat="44.83813" lon="5.39752">
        <ele>1263.23</ele>
        <time>2017-08-18T06:00:21.000Z</time>
      </trkpt>
      <trkpt lat="44.83804" lon="5.39747">
        <ele>1256.82</ele>
        <time>2017-08-18T06:01:09.000Z</time>
      </trkpt>
      <trkpt lat="44.83801" lon="5.39734">
        <ele>1252.25</ele>
        <time>2017-08-18T06:03:53.000Z</time>
      </trkpt>
      <trkpt lat="44.83805" lon="5.39721">
        <ele>1252</ele>
        <time>2017-08-18T06:04:30.000Z</time>
      </trkpt>
      <trkpt lat="44.83807" lon="5.39705">
        <ele>1250.29</ele>
        <time>2017-08-18T06:04:40.000Z</time>
      </trkpt>
      <trkpt lat="44.83808" lon="5.39692">
        <ele>1248.58</ele>
        <time>2017-08-18T06:06:46.000Z</time>
      </trkpt>
      <trkpt lat="44.8381" lon="5.39677">
        <ele>1247.53</ele>
        <time>2017-08-18T06:07:57.000Z</time>
      </trkpt>
      <trkpt lat="44.83814" lon="5.39654">
        <ele>1245.58</ele>
        <time>2017-08-18T06:08:07.000Z</time>
      </trkpt>
      <trkpt lat="44.83819" lon="5.3964">
        <ele>1246.15</ele>
        <time>2017-08-18T06:08:17.000Z</time>
      </trkpt>
      <trkpt lat="44.83824" lon="5.39629">
        <ele>1246.68</ele>
        <time>2017-08-18T06:08:52.000Z</time>
      </trkpt>
      <trkpt lat="44.8383" lon="5.39617">
        <ele>1248</ele>
        <time>2017-08-18T06:09:02.000Z</time>
      </trkpt>
      <trkpt lat="44.83833" lon="5.39602">
        <ele>1246.83</ele>
        <time>2017-08-18T06:09:16.000Z</time>
      </trkpt>
      <trkpt lat="44.83843" lon="5.39599">
        <ele>1251.48</ele>
        <time>2017-08-18T06:09:26.000Z</time>
      </trkpt>
      <trkpt lat="44.83849" lon="5.39584">
        <ele>1251.19</ele>
        <time>2017-08-18T06:09:36.000Z</time>
      </trkpt>
      <trkpt lat="44.83852" lon="5.39572">
        <ele>1250.25</ele>
        <time>2017-08-18T06:09:46.000Z</time>
      </trkpt>
      <trkpt lat="44.83857" lon="5.39559">
        <ele>1249.6</ele>
        <time>2017-08-18T06:09:57.000Z</time>
      </trkpt>
      <trkpt lat="44.83863" lon="5.3955">
        <ele>1250.44</ele>
        <time>2017-08-18T06:10:10.000Z</time>
      </trkpt>
      <trkpt lat="44.83865" lon="5.39563">
        <ele>1254.77</ele>
        <time>2017-08-18T06:10:32.000Z</time>
      </trkpt>
      <trkpt lat="44.83864" lon="5.39577">
        <ele>1257.97</ele>
        <time>2017-08-18T06:10:43.000Z</time>
      </trkpt>
      <trkpt lat="44.83864" lon="5.3959">
        <ele>1261.14</ele>
        <time>2017-08-18T06:11:00.000Z</time>
      </trkpt>
      <trkpt lat="44.83861" lon="5.39603">
        <ele>1262.06</ele>
        <time>2017-08-18T06:11:14.000Z</time>
      </trkpt>
      <trkpt lat="44.83852" lon="5.39613">
        <ele>1259.63</ele>
        <time>2017-08-18T06:11:27.000Z</time>
      </trkpt>
      <trkpt lat="44.83849" lon="5.39629">
        <ele>1261.11</ele>
        <time>2017-08-18T06:11:37.000Z</time>
      </trkpt>
      <trkpt lat="44.83853" lon="5.39641">
        <ele>1265.62</ele>
        <time>2017-08-18T06:11:52.000Z</time>
      </trkpt>
      <trkpt lat="44.83849" lon="5.39656">
        <ele>1265.97</ele>
        <time>2017-08-18T06:12:08.000Z</time>
      </trkpt>
      <trkpt lat="44.83843" lon="5.39672">
        <ele>1265.46</ele>
        <time>2017-08-18T06:12:18.000Z</time>
      </trkpt>
      <trkpt lat="44.83849" lon="5.39689">
        <ele>1272.47</ele>
        <time>2017-08-18T06:13:14.000Z</time>
      </trkpt>
      <trkpt lat="44.83858" lon="5.39731">
        <ele>1285.32</ele>
        <time>2017-08-18T06:13:24.000Z</time>
      </trkpt>
      <trkpt lat="44.83855" lon="5.39743">
        <ele>1286.11</ele>
        <time>2017-08-18T06:14:00.000Z</time>
      </trkpt>
      <trkpt lat="44.83854" lon="5.39756">
        <ele>1288.33</ele>
        <time>2017-08-18T06:14:37.000Z</time>
      </trkpt>
      <trkpt lat="44.8385" lon="5.39776">
        <ele>1290.89</ele>
        <time>2017-08-18T06:14:47.000Z</time>
      </trkpt>
      <trkpt lat="44.83854" lon="5.39793">
        <ele>1297.32</ele>
        <time>2017-08-18T06:14:57.000Z</time>
      </trkpt>
      <trkpt lat="44.83847" lon="5.39804">
        <ele>1296.61</ele>
        <time>2017-08-18T06:15:09.000Z</time>
      </trkpt>
      <trkpt lat="44.83838" lon="5.39812">
        <ele>1294.21</ele>
        <time>2017-08-18T06:15:21.000Z</time>
      </trkpt>
      <trkpt lat="44.83834" lon="5.39823">
        <ele>1295.37</ele>
        <time>2017-08-18T06:15:36.000Z</time>
      </trkpt>
      <trkpt lat="44.83833" lon="5.39836">
        <ele>1299.9</ele>
        <time>2017-08-18T06:16:05.000Z</time>
      </trkpt>
      <trkpt lat="44.83821" lon="5.39832">
        <ele>1290.98</ele>
        <time>2017-08-18T06:16:31.000Z</time>
      </trkpt>
      <trkpt lat="44.83816" lon="5.39846">
        <ele>1293.76</ele>
        <time>2017-08-18T06:16:41.000Z</time>
      </trkpt>
      <trkpt lat="44.83812" lon="5.39858">
        <ele>1296.83</ele>
        <time>2017-08-18T06:16:54.000Z</time>
      </trkpt>
      <trkpt lat="44.83805" lon="5.39866">
        <ele>1296.83</ele>
        <time>2017-08-18T06:17:04.000Z</time>
      </trkpt>
      <trkpt lat="44.83797" lon="5.39873">
        <ele>1295.74</ele>
        <time>2017-08-18T06:17:16.000Z</time>
      </trkpt>
      <trkpt lat="44.83791" lon="5.39885">
        <ele>1300.27</ele>
        <time>2017-08-18T06:17:31.000Z</time>
      </trkpt>
      <trkpt lat="44.83789" lon="5.39898">
        <ele>1305.99</ele>
        <time>2017-08-18T06:17:47.000Z</time>
      </trkpt>
      <trkpt lat="44.83783" lon="5.39908">
        <ele>1308.67</ele>
        <time>2017-08-18T06:18:21.000Z</time>
      </trkpt>
      <trkpt lat="44.83775" lon="5.39916">
        <ele>1308.99</ele>
        <time>2017-08-18T06:19:20.000Z</time>
      </trkpt>
      <trkpt lat="44.83771" lon="5.39928">
        <ele>1313.14</ele>
        <time>2017-08-18T06:19:30.000Z</time>
      </trkpt>
      <trkpt lat="44.83768" lon="5.39942">
        <ele>1319.59</ele>
        <time>2017-08-18T06:19:45.000Z</time>
      </trkpt>
      <trkpt lat="44.8376" lon="5.39952">
        <ele>1320.66</ele>
        <time>2017-08-18T06:19:55.000Z</time>
      </trkpt>
      <trkpt lat="44.83751" lon="5.39956">
        <ele>1318.36</ele>
        <time>2017-08-18T06:20:05.000Z</time>
      </trkpt>
      <trkpt lat="44.83748" lon="5.39968">
        <ele>1323.27</ele>
        <time>2017-08-18T06:20:23.000Z</time>
      </trkpt>
      <trkpt lat="44.83743" lon="5.39979">
        <ele>1326.08</ele>
        <time>2017-08-18T06:20:43.000Z</time>
      </trkpt>
      <trkpt lat="44.83734" lon="5.39981">
        <ele>1321.9</ele>
        <time>2017-08-18T06:21:03.000Z</time>
      </trkpt>
      <trkpt lat="44.83724" lon="5.39982">
        <ele>1316.31</ele>
        <time>2017-08-18T06:21:17.000Z</time>
      </trkpt>
      <trkpt lat="44.83721" lon="5.39995">
        <ele>1321.2</ele>
        <time>2017-08-18T06:21:27.000Z</time>
      </trkpt>
      <trkpt lat="44.83709" lon="5.40005">
        <ele>1318.34</ele>
        <time>2017-08-18T06:21:37.000Z</time>
      </trkpt>
      <trkpt lat="44.83707" lon="5.40018">
        <ele>1322.56</ele>
        <time>2017-08-18T06:21:49.000Z</time>
      </trkpt>
      <trkpt lat="44.83711" lon="5.40031">
        <ele>1329.01</ele>
        <time>2017-08-18T06:22:05.000Z</time>
      </trkpt>
      <trkpt lat="44.83707" lon="5.40044">
        <ele>1331.05</ele>
        <time>2017-08-18T06:22:20.000Z</time>
      </trkpt>
      <trkpt lat="44.83708" lon="5.40057">
        <ele>1335.05</ele>
        <time>2017-08-18T06:22:32.000Z</time>
      </trkpt>
      <trkpt lat="44.83706" lon="5.4007">
        <ele>1337.83</ele>
        <time>2017-08-18T06:22:42.000Z</time>
      </trkpt>
      <trkpt lat="44.83716" lon="5.40069">
        <ele>1341.35</ele>
        <time>2017-08-18T06:22:52.000Z</time>
      </trkpt>
      <trkpt lat="44.83726" lon="5.40067">
        <ele>1344.57</ele>
        <time>2017-08-18T06:23:03.000Z</time>
      </trkpt>
      <trkpt lat="44.83736" lon="5.40067">
        <ele>1348.83</ele>
        <time>2017-08-18T06:23:23.000Z</time>
      </trkpt>
      <trkpt lat="44.83746" lon="5.40068">
        <ele>1352.67</ele>
        <time>2017-08-18T06:23:44.000Z</time>
      </trkpt>
      <trkpt lat="44.83756" lon="5.40067">
        <ele>1356.69</ele>
        <time>2017-08-18T06:24:04.000Z</time>
      </trkpt>
      <trkpt lat="44.83747" lon="5.40075">
        <ele>1354.34</ele>
        <time>2017-08-18T06:24:31.000Z</time>
      </trkpt>
      <trkpt lat="44.83753" lon="5.40088">
        <ele>1358.95</ele>
        <time>2017-08-18T06:24:41.000Z</time>
      </trkpt>
      <trkpt lat="44.83745" lon="5.40096">
        <ele>1357.66</ele>
        <time>2017-08-18T06:24:52.000Z</time>
      </trkpt>
      <trkpt lat="44.83752" lon="5.40105">
        <ele>1361.81</ele>
        <time>2017-08-18T06:25:02.000Z</time>
      </trkpt>
      <trkpt lat="44.83747" lon="5.40116">
        <ele>1362.15</ele>
        <time>2017-08-18T06:25:20.000Z</time>
      </trkpt>
      <trkpt lat="44.83741" lon="5.40129">
        <ele>1362.99</ele>
        <time>2017-08-18T06:26:26.000Z</time>
      </trkpt>
      <trkpt lat="44.83727" lon="5.40142">
        <ele>1361.65</ele>
        <time>2017-08-18T06:26:36.000Z</time>
      </trkpt>
      <trkpt lat="44.83721" lon="5.40153">
        <ele>1362.27</ele>
        <time>2017-08-18T06:26:46.000Z</time>
      </trkpt>
      <trkpt lat="44.83712" lon="5.40157">
        <ele>1361.18</ele>
        <time>2017-08-18T06:27:00.000Z</time>
      </trkpt>
      <trkpt lat="44.8372" lon="5.40166">
        <ele>1364.23</ele>
        <time>2017-08-18T06:27:27.000Z</time>
      </trkpt>
      <trkpt lat="44.8373" lon="5.40169">
        <ele>1366.14</ele>
        <time>2017-08-18T06:27:37.000Z</time>
      </trkpt>
      <trkpt lat="44.83741" lon="5.40167">
        <ele>1367.98</ele>
        <time>2017-08-18T06:27:54.000Z</time>
      </trkpt>
      <trkpt lat="44.83748" lon="5.40179">
        <ele>1369.71</ele>
        <time>2017-08-18T06:28:08.000Z</time>
      </trkpt>
      <trkpt lat="44.83757" lon="5.40176">
        <ele>1371.8</ele>
        <time>2017-08-18T06:30:16.000Z</time>
      </trkpt>
      <trkpt lat="44.83767" lon="5.40172">
        <ele>1374.59</ele>
        <time>2017-08-18T06:30:56.000Z</time>
      </trkpt>
      <trkpt lat="44.83779" lon="5.40171">
        <ele>1378.04</ele>
        <time>2017-08-18T06:31:24.000Z</time>
      </trkpt>
      <trkpt lat="44.83795" lon="5.40169">
        <ele>1383.52</ele>
        <time>2017-08-18T06:31:34.000Z</time>
      </trkpt>
      <trkpt lat="44.83806" lon="5.40159">
        <ele>1387.36</ele>
        <time>2017-08-18T06:31:44.000Z</time>
      </trkpt>
      <trkpt lat="44.8381" lon="5.40146">
        <ele>1388.37</ele>
        <time>2017-08-18T06:32:00.000Z</time>
      </trkpt>
      <trkpt lat="44.83818" lon="5.40139">
        <ele>1390.75</ele>
        <time>2017-08-18T06:32:15.000Z</time>
      </trkpt>
      <trkpt lat="44.83827" lon="5.40135">
        <ele>1393.83</ele>
        <time>2017-08-18T06:32:26.000Z</time>
      </trkpt>
      <trkpt lat="44.83838" lon="5.40136">
        <ele>1397.56</ele>
        <time>2017-08-18T06:33:21.000Z</time>
      </trkpt>
      <trkpt lat="44.83854" lon="5.40137">
        <ele>1403.28</ele>
        <time>2017-08-18T06:33:31.000Z</time>
      </trkpt>
      <trkpt lat="44.83865" lon="5.40132">
        <ele>1406.81</ele>
        <time>2017-08-18T06:34:04.000Z</time>
      </trkpt>
      <trkpt lat="44.83883" lon="5.40117">
        <ele>1412.5</ele>
        <time>2017-08-18T06:34:14.000Z</time>
      </trkpt>
      <trkpt lat="44.83891" lon="5.40107">
        <ele>1414.92</ele>
        <time>2017-08-18T06:34:24.000Z</time>
      </trkpt>
      <trkpt lat="44.83897" lon="5.40095">
        <ele>1416.99</ele>
        <time>2017-08-18T06:35:03.000Z</time>
      </trkpt>
      <trkpt lat="44.8391" lon="5.40066">
        <ele>1420.65</ele>
        <time>2017-08-18T06:35:13.000Z</time>
      </trkpt>
      <trkpt lat="44.83918" lon="5.40057">
        <ele>1423.47</ele>
        <time>2017-08-18T06:35:23.000Z</time>
      </trkpt>
      <trkpt lat="44.83923" lon="5.40045">
        <ele>1424.37</ele>
        <time>2017-08-18T06:36:22.000Z</time>
      </trkpt>
      <trkpt lat="44.83937" lon="5.4004">
        <ele>1429.23</ele>
        <time>2017-08-18T06:36:32.000Z</time>
      </trkpt>
      <trkpt lat="44.83945" lon="5.40023">
        <ele>1429.97</ele>
        <time>2017-08-18T06:36:42.000Z</time>
      </trkpt>
      <trkpt lat="44.83955" lon="5.40026">
        <ele>1433.67</ele>
        <time>2017-08-18T06:37:06.000Z</time>
      </trkpt>
      <trkpt lat="44.83968" lon="5.4003">
        <ele>1437.97</ele>
        <time>2017-08-18T06:37:16.000Z</time>
      </trkpt>
      <trkpt lat="44.83979" lon="5.40033">
        <ele>1441.39</ele>
        <time>2017-08-18T06:37:27.000Z</time>
      </trkpt>
      <trkpt lat="44.83988" lon="5.40035">
        <ele>1444.05</ele>
        <time>2017-08-18T06:37:38.000Z</time>
      </trkpt>
      <trkpt lat="44.83988" lon="5.40014">
        <ele>1441.27</ele>
        <time>2017-08-18T06:37:48.000Z</time>
      </trkpt>
      <trkpt lat="44.83996" lon="5.40008">
        <ele>1442.6</ele>
        <time>2017-08-18T06:38:04.000Z</time>
      </trkpt>
      <trkpt lat="44.84002" lon="5.39997">
        <ele>1443.27</ele>
        <time>2017-08-18T06:38:35.000Z</time>
      </trkpt>
      <trkpt lat="44.84008" lon="5.39988">
        <ele>1445.15</ele>
        <time>2017-08-18T06:38:51.000Z</time>
      </trkpt>
      <trkpt lat="44.84013" lon="5.39977">
        <ele>1447.37</ele>
        <time>2017-08-18T06:42:31.000Z</time>
      </trkpt>
      <trkpt lat="44.8402" lon="5.39987">
        <ele>1448.08</ele>
        <time>2017-08-18T06:43:35.000Z</time>
      </trkpt>
      <trkpt lat="44.84028" lon="5.39979">
        <ele>1450.79</ele>
        <time>2017-08-18T06:43:45.000Z</time>
      </trkpt>
      <trkpt lat="44.84036" lon="5.39969">
        <ele>1454.19</ele>
        <time>2017-08-18T06:43:55.000Z</time>
      </trkpt>
      <trkpt lat="44.84045" lon="5.39967">
        <ele>1456.57</ele>
        <time>2017-08-18T06:44:06.000Z</time>
      </trkpt>
      <trkpt lat="44.84056" lon="5.39967">
        <ele>1458.65</ele>
        <time>2017-08-18T06:44:19.000Z</time>
      </trkpt>
      <trkpt lat="44.84064" lon="5.39961">
        <ele>1461.06</ele>
        <time>2017-08-18T06:44:31.000Z</time>
      </trkpt>
      <trkpt lat="44.84074" lon="5.39957">
        <ele>1463.07</ele>
        <time>2017-08-18T06:44:41.000Z</time>
      </trkpt>
      <trkpt lat="44.84081" lon="5.39948">
        <ele>1465.61</ele>
        <time>2017-08-18T06:44:59.000Z</time>
      </trkpt>
      <trkpt lat="44.8409" lon="5.39943">
        <ele>1466.8</ele>
        <time>2017-08-18T06:45:10.000Z</time>
      </trkpt>
      <trkpt lat="44.84099" lon="5.39939">
        <ele>1467.24</ele>
        <time>2017-08-18T06:45:26.000Z</time>
      </trkpt>
      <trkpt lat="44.84109" lon="5.39938">
        <ele>1466.38</ele>
        <time>2017-08-18T06:45:36.000Z</time>
      </trkpt>
      <trkpt lat="44.84119" lon="5.39932">
        <ele>1465.93</ele>
        <time>2017-08-18T06:46:23.000Z</time>
      </trkpt>
      <trkpt lat="44.8413" lon="5.39918">
        <ele>1466.18</ele>
        <time>2017-08-18T06:46:33.000Z</time>
      </trkpt>
      <trkpt lat="44.84138" lon="5.39912">
        <ele>1465.81</ele>
        <time>2017-08-18T06:46:43.000Z</time>
      </trkpt>
      <trkpt lat="44.84147" lon="5.39912">
        <ele>1464.39</ele>
        <time>2017-08-18T06:46:53.000Z</time>
      </trkpt>
      <trkpt lat="44.84157" lon="5.39907">
        <ele>1464.54</ele>
        <time>2017-08-18T06:47:03.000Z</time>
      </trkpt>
      <trkpt lat="44.84166" lon="5.399">
        <ele>1466.27</ele>
        <time>2017-08-18T06:47:14.000Z</time>
      </trkpt>
      <trkpt lat="44.84173" lon="5.39892">
        <ele>1469.04</ele>
        <time>2017-08-18T06:47:56.000Z</time>
      </trkpt>
      <trkpt lat="44.84182" lon="5.39886">
        <ele>1471.81</ele>
        <time>2017-08-18T06:48:10.000Z</time>
      </trkpt>
      <trkpt lat="44.84189" lon="5.39876">
        <ele>1476.08</ele>
        <time>2017-08-18T06:48:20.000Z</time>
      </trkpt>
      <trkpt lat="44.84195" lon="5.39865">
        <ele>1480.5</ele>
        <time>2017-08-18T06:48:32.000Z</time>
      </trkpt>
      <trkpt lat="44.84204" lon="5.39866">
        <ele>1481.63</ele>
        <time>2017-08-18T06:48:49.000Z</time>
      </trkpt>
      <trkpt lat="44.84213" lon="5.39859">
        <ele>1485.09</ele>
        <time>2017-08-18T06:49:10.000Z</time>
      </trkpt>
      <trkpt lat="44.84222" lon="5.39853">
        <ele>1488.05</ele>
        <time>2017-08-18T06:50:06.000Z</time>
      </trkpt>
      <trkpt lat="44.84235" lon="5.39848">
        <ele>1491.24</ele>
        <time>2017-08-18T06:50:16.000Z</time>
      </trkpt>
      <trkpt lat="44.84243" lon="5.39839">
        <ele>1494.8</ele>
        <time>2017-08-18T06:50:27.000Z</time>
      </trkpt>
      <trkpt lat="44.84253" lon="5.39835">
        <ele>1496.82</ele>
        <time>2017-08-18T06:50:39.000Z</time>
      </trkpt>
      <trkpt lat="44.84259" lon="5.39825">
        <ele>1500.19</ele>
        <time>2017-08-18T06:51:45.000Z</time>
      </trkpt>
      <trkpt lat="44.84267" lon="5.39819">
        <ele>1502.47</ele>
        <time>2017-08-18T06:51:55.000Z</time>
      </trkpt>
      <trkpt lat="44.84275" lon="5.39812">
        <ele>1505.25</ele>
        <time>2017-08-18T06:52:19.000Z</time>
      </trkpt>
      <trkpt lat="44.8429" lon="5.39811">
        <ele>1505.73</ele>
        <time>2017-08-18T06:52:29.000Z</time>
      </trkpt>
      <trkpt lat="44.84297" lon="5.39802">
        <ele>1508.84</ele>
        <time>2017-08-18T06:52:39.000Z</time>
      </trkpt>
      <trkpt lat="44.84307" lon="5.39804">
        <ele>1508.15</ele>
        <time>2017-08-18T06:52:53.000Z</time>
      </trkpt>
      <trkpt lat="44.84314" lon="5.39795">
        <ele>1511.13</ele>
        <time>2017-08-18T06:53:07.000Z</time>
      </trkpt>
      <trkpt lat="44.84321" lon="5.39782">
        <ele>1515.83</ele>
        <time>2017-08-18T06:53:49.000Z</time>
      </trkpt>
      <trkpt lat="44.84331" lon="5.39772">
        <ele>1519.9</ele>
        <time>2017-08-18T06:53:59.000Z</time>
      </trkpt>
      <trkpt lat="44.8434" lon="5.39756">
        <ele>1525.9</ele>
        <time>2017-08-18T06:56:04.000Z</time>
      </trkpt>
      <trkpt lat="44.84357" lon="5.39754">
        <ele>1528.37</ele>
        <time>2017-08-18T06:56:14.000Z</time>
      </trkpt>
      <trkpt lat="44.84366" lon="5.39736">
        <ele>1535.78</ele>
        <time>2017-08-18T06:56:24.000Z</time>
      </trkpt>
      <trkpt lat="44.84374" lon="5.39725">
        <ele>1541.83</ele>
        <time>2017-08-18T06:57:33.000Z</time>
      </trkpt>
      <trkpt lat="44.84381" lon="5.39715">
        <ele>1547.13</ele>
        <time>2017-08-18T06:57:45.000Z</time>
      </trkpt>
      <trkpt lat="44.8439" lon="5.39707">
        <ele>1551.59</ele>
        <time>2017-08-18T06:58:34.000Z</time>
      </trkpt>
      <trkpt lat="44.84401" lon="5.39704">
        <ele>1554.39</ele>
        <time>2017-08-18T06:58:44.000Z</time>
      </trkpt>
      <trkpt lat="44.84408" lon="5.39695">
        <ele>1559.4</ele>
        <time>2017-08-18T06:58:55.000Z</time>
      </trkpt>
      <trkpt lat="44.84417" lon="5.39689">
        <ele>1562.89</ele>
        <time>2017-08-18T06:59:12.000Z</time>
      </trkpt>
      <trkpt lat="44.84429" lon="5.39683">
        <ele>1566</ele>
        <time>2017-08-18T07:00:01.000Z</time>
      </trkpt>
      <trkpt lat="44.84432" lon="5.39667">
        <ele>1571.89</ele>
        <time>2017-08-18T07:00:11.000Z</time>
      </trkpt>
      <trkpt lat="44.84441" lon="5.3966">
        <ele>1574.43</ele>
        <time>2017-08-18T07:00:50.000Z</time>
      </trkpt>
      <trkpt lat="44.84446" lon="5.39647">
        <ele>1578.37</ele>
        <time>2017-08-18T07:01:41.000Z</time>
      </trkpt>
      <trkpt lat="44.8444" lon="5.39635">
        <ele>1581.89</ele>
        <time>2017-08-18T07:01:58.000Z</time>
      </trkpt>
      <trkpt lat="44.84445" lon="5.39624">
        <ele>1585.14</ele>
        <time>2017-08-18T07:02:15.000Z</time>
      </trkpt>
      <trkpt lat="44.84446" lon="5.39611">
        <ele>1588.17</ele>
        <time>2017-08-18T07:03:21.000Z</time>
      </trkpt>
      <trkpt lat="44.84446" lon="5.39598">
        <ele>1590.49</ele>
        <time>2017-08-18T07:03:49.000Z</time>
      </trkpt>
      <trkpt lat="44.84455" lon="5.39589">
        <ele>1593.71</ele>
        <time>2017-08-18T07:03:59.000Z</time>
      </trkpt>
      <trkpt lat="44.84461" lon="5.39577">
        <ele>1596.55</ele>
        <time>2017-08-18T07:04:42.000Z</time>
      </trkpt>
      <trkpt lat="44.84468" lon="5.39568">
        <ele>1598.98</ele>
        <time>2017-08-18T07:08:53.000Z</time>
      </trkpt>
      <trkpt lat="44.84477" lon="5.39568">
        <ele>1601.24</ele>
        <time>2017-08-18T07:11:33.000Z</time>
      </trkpt>
      <trkpt lat="44.84491" lon="5.39554">
        <ele>1606.37</ele>
        <time>2017-08-18T07:11:43.000Z</time>
      </trkpt>
      <trkpt lat="44.845" lon="5.3955">
        <ele>1608.76</ele>
        <time>2017-08-18T07:11:55.000Z</time>
      </trkpt>
      <trkpt lat="44.84506" lon="5.39538">
        <ele>1611.9</ele>
        <time>2017-08-18T07:12:13.000Z</time>
      </trkpt>
      <trkpt lat="44.84516" lon="5.39531">
        <ele>1614.68</ele>
        <time>2017-08-18T07:12:29.000Z</time>
      </trkpt>
      <trkpt lat="44.84518" lon="5.39518">
        <ele>1617.09</ele>
        <time>2017-08-18T07:12:44.000Z</time>
      </trkpt>
      <trkpt lat="44.84525" lon="5.39509">
        <ele>1619.37</ele>
        <time>2017-08-18T07:12:56.000Z</time>
      </trkpt>
      <trkpt lat="44.84537" lon="5.39503">
        <ele>1621.72</ele>
        <time>2017-08-18T07:13:18.000Z</time>
      </trkpt>
      <trkpt lat="44.84544" lon="5.39496">
        <ele>1623.54</ele>
        <time>2017-08-18T07:13:31.000Z</time>
      </trkpt>
      <trkpt lat="44.8455" lon="5.39486">
        <ele>1625.14</ele>
        <time>2017-08-18T07:13:47.000Z</time>
      </trkpt>
      <trkpt lat="44.84555" lon="5.39475">
        <ele>1626.43</ele>
        <time>2017-08-18T07:14:00.000Z</time>
      </trkpt>
      <trkpt lat="44.84561" lon="5.39459">
        <ele>1627.79</ele>
        <time>2017-08-18T07:15:09.000Z</time>
      </trkpt>
      <trkpt lat="44.84576" lon="5.39448">
        <ele>1630.69</ele>
        <time>2017-08-18T07:15:19.000Z</time>
      </trkpt>
      <trkpt lat="44.84585" lon="5.39437">
        <ele>1632.37</ele>
        <time>2017-08-18T07:15:29.000Z</time>
      </trkpt>
      <trkpt lat="44.84596" lon="5.39432">
        <ele>1633.74</ele>
        <time>2017-08-18T07:15:56.000Z</time>
      </trkpt>
      <trkpt lat="44.84586" lon="5.39432">
        <ele>1632.42</ele>
        <time>2017-08-18T07:16:15.000Z</time>
      </trkpt>
      <trkpt lat="44.84596" lon="5.39427">
        <ele>1633.73</ele>
        <time>2017-08-18T07:16:46.000Z</time>
      </trkpt>
      <trkpt lat="44.84588" lon="5.39434">
        <ele>1632.86</ele>
        <time>2017-08-18T07:17:00.000Z</time>
      </trkpt>
      <trkpt lat="44.84597" lon="5.39428">
        <ele>1633.79</ele>
        <time>2017-08-18T07:28:27.000Z</time>
      </trkpt>
      <trkpt lat="44.84606" lon="5.39425">
        <ele>1634.42</ele>
        <time>2017-08-18T07:29:04.000Z</time>
      </trkpt>
      <trkpt lat="44.84615" lon="5.39427">
        <ele>1634.72</ele>
        <time>2017-08-18T07:29:15.000Z</time>
      </trkpt>
      <trkpt lat="44.84623" lon="5.39431">
        <ele>1634.52</ele>
        <time>2017-08-18T07:29:27.000Z</time>
      </trkpt>
      <trkpt lat="44.84633" lon="5.39426">
        <ele>1634.34</ele>
        <time>2017-08-18T07:29:40.000Z</time>
      </trkpt>
      <trkpt lat="44.84644" lon="5.39426">
        <ele>1633.75</ele>
        <time>2017-08-18T07:29:50.000Z</time>
      </trkpt>
      <trkpt lat="44.84656" lon="5.39425">
        <ele>1633.19</ele>
        <time>2017-08-18T07:30:00.000Z</time>
      </trkpt>
      <trkpt lat="44.84666" lon="5.39424">
        <ele>1632.85</ele>
        <time>2017-08-18T07:30:11.000Z</time>
      </trkpt>
      <trkpt lat="44.84675" lon="5.39422">
        <ele>1632.62</ele>
        <time>2017-08-18T07:30:29.000Z</time>
      </trkpt>
      <trkpt lat="44.84685" lon="5.3942">
        <ele>1632.15</ele>
        <time>2017-08-18T07:30:43.000Z</time>
      </trkpt>
      <trkpt lat="44.84697" lon="5.39426">
        <ele>1631</ele>
        <time>2017-08-18T07:30:53.000Z</time>
      </trkpt>
      <trkpt lat="44.84707" lon="5.39426">
        <ele>1630.27</ele>
        <time>2017-08-18T07:31:03.000Z</time>
      </trkpt>
      <trkpt lat="44.84716" lon="5.39423">
        <ele>1629.6</ele>
        <time>2017-08-18T07:31:18.000Z</time>
      </trkpt>
      <trkpt lat="44.84725" lon="5.39421">
        <ele>1628.84</ele>
        <time>2017-08-18T07:31:37.000Z</time>
      </trkpt>
      <trkpt lat="44.84735" lon="5.39423">
        <ele>1628.06</ele>
        <time>2017-08-18T07:32:01.000Z</time>
      </trkpt>
      <trkpt lat="44.84748" lon="5.3944">
        <ele>1626.51</ele>
        <time>2017-08-18T07:37:32.000Z</time>
      </trkpt>
      <trkpt lat="44.84755" lon="5.39415">
        <ele>1626.7</ele>
        <time>2017-08-18T07:37:42.000Z</time>
      </trkpt>
      <trkpt lat="44.84766" lon="5.39418">
        <ele>1626.27</ele>
        <time>2017-08-18T07:37:52.000Z</time>
      </trkpt>
      <trkpt lat="44.84775" lon="5.39407">
        <ele>1625.47</ele>
        <time>2017-08-18T07:38:02.000Z</time>
      </trkpt>
      <trkpt lat="44.84786" lon="5.39407">
        <ele>1625.14</ele>
        <time>2017-08-18T07:38:12.000Z</time>
      </trkpt>
      <trkpt lat="44.84797" lon="5.39403">
        <ele>1624.52</ele>
        <time>2017-08-18T07:38:22.000Z</time>
      </trkpt>
      <trkpt lat="44.84814" lon="5.39414">
        <ele>1624.67</ele>
        <time>2017-08-18T07:38:32.000Z</time>
      </trkpt>
      <trkpt lat="44.84823" lon="5.39416">
        <ele>1624.39</ele>
        <time>2017-08-18T07:38:59.000Z</time>
      </trkpt>
      <trkpt lat="44.84832" lon="5.39422">
        <ele>1623.99</ele>
        <time>2017-08-18T07:39:09.000Z</time>
      </trkpt>
      <trkpt lat="44.84841" lon="5.39425">
        <ele>1623.59</ele>
        <time>2017-08-18T07:39:25.000Z</time>
      </trkpt>
      <trkpt lat="44.84851" lon="5.39419">
        <ele>1623.51</ele>
        <time>2017-08-18T07:39:35.000Z</time>
      </trkpt>
      <trkpt lat="44.84847" lon="5.39406">
        <ele>1622.98</ele>
        <time>2017-08-18T07:43:42.000Z</time>
      </trkpt>
      <trkpt lat="44.84836" lon="5.39395">
        <ele>1622.03</ele>
        <time>2017-08-18T07:43:52.000Z</time>
      </trkpt>
      <trkpt lat="44.84825" lon="5.39391">
        <ele>1622.15</ele>
        <time>2017-08-18T07:44:02.000Z</time>
      </trkpt>
      <trkpt lat="44.84815" lon="5.3939">
        <ele>1622.31</ele>
        <time>2017-08-18T07:44:12.000Z</time>
      </trkpt>
      <trkpt lat="44.84806" lon="5.39382">
        <ele>1621.3</ele>
        <time>2017-08-18T07:44:50.000Z</time>
      </trkpt>
      <trkpt lat="44.84792" lon="5.39372">
        <ele>1619.86</ele>
        <time>2017-08-18T07:45:00.000Z</time>
      </trkpt>
      <trkpt lat="44.8478" lon="5.39368">
        <ele>1619.27</ele>
        <time>2017-08-18T07:45:10.000Z</time>
      </trkpt>
      <trkpt lat="44.84779" lon="5.39354">
        <ele>1616.22</ele>
        <time>2017-08-18T07:45:57.000Z</time>
      </trkpt>
      <trkpt lat="44.84767" lon="5.39353">
        <ele>1616.35</ele>
        <time>2017-08-18T07:46:07.000Z</time>
      </trkpt>
      <trkpt lat="44.84763" lon="5.3934">
        <ele>1613.22</ele>
        <time>2017-08-18T07:47:02.000Z</time>
      </trkpt>
      <trkpt lat="44.84756" lon="5.39332">
        <ele>1611.38</ele>
        <time>2017-08-18T07:47:12.000Z</time>
      </trkpt>
      <trkpt lat="44.84742" lon="5.39324">
        <ele>1609.68</ele>
        <time>2017-08-18T07:47:22.000Z</time>
      </trkpt>
      <trkpt lat="44.84732" lon="5.3932">
        <ele>1608.79</ele>
        <time>2017-08-18T07:47:32.000Z</time>
      </trkpt>
      <trkpt lat="44.84724" lon="5.3931">
        <ele>1605.59</ele>
        <time>2017-08-18T07:47:42.000Z</time>
      </trkpt>
      <trkpt lat="44.84714" lon="5.39311">
        <ele>1606.65</ele>
        <time>2017-08-18T07:47:54.000Z</time>
      </trkpt>
      <trkpt lat="44.84709" lon="5.39297">
        <ele>1601.03</ele>
        <time>2017-08-18T07:48:08.000Z</time>
      </trkpt>
      <trkpt lat="44.84702" lon="5.39287">
        <ele>1596.81</ele>
        <time>2017-08-18T07:48:22.000Z</time>
      </trkpt>
      <trkpt lat="44.84692" lon="5.39288">
        <ele>1597.02</ele>
        <time>2017-08-18T07:48:34.000Z</time>
      </trkpt>
      <trkpt lat="44.84684" lon="5.39278">
        <ele>1592.67</ele>
        <time>2017-08-18T07:48:55.000Z</time>
      </trkpt>
      <trkpt lat="44.84675" lon="5.39271">
        <ele>1589.27</ele>
        <time>2017-08-18T07:49:05.000Z</time>
      </trkpt>
      <trkpt lat="44.84665" lon="5.39265">
        <ele>1586.45</ele>
        <time>2017-08-18T07:49:15.000Z</time>
      </trkpt>
      <trkpt lat="44.84658" lon="5.39257">
        <ele>1582.81</ele>
        <time>2017-08-18T07:49:33.000Z</time>
      </trkpt>
      <trkpt lat="44.84644" lon="5.39248">
        <ele>1579.58</ele>
        <time>2017-08-18T07:49:43.000Z</time>
      </trkpt>
      <trkpt lat="44.84647" lon="5.39236">
        <ele>1574.57</ele>
        <time>2017-08-18T07:49:53.000Z</time>
      </trkpt>
      <trkpt lat="44.84636" lon="5.39235">
        <ele>1574.47</ele>
        <time>2017-08-18T07:50:03.000Z</time>
      </trkpt>
      <trkpt lat="44.84639" lon="5.39223">
        <ele>1569.38</ele>
        <time>2017-08-18T07:50:16.000Z</time>
      </trkpt>
      <trkpt lat="44.84627" lon="5.39218">
        <ele>1567.84</ele>
        <time>2017-08-18T07:50:27.000Z</time>
      </trkpt>
      <trkpt lat="44.84618" lon="5.39211">
        <ele>1565.33</ele>
        <time>2017-08-18T07:50:37.000Z</time>
      </trkpt>
      <trkpt lat="44.84607" lon="5.39202">
        <ele>1561.44</ele>
        <time>2017-08-18T07:51:12.000Z</time>
      </trkpt>
      <trkpt lat="44.84595" lon="5.39192">
        <ele>1557.42</ele>
        <time>2017-08-18T07:51:22.000Z</time>
      </trkpt>
      <trkpt lat="44.84587" lon="5.3918">
        <ele>1552.26</ele>
        <time>2017-08-18T07:51:32.000Z</time>
      </trkpt>
      <trkpt lat="44.8458" lon="5.39172">
        <ele>1548.41</ele>
        <time>2017-08-18T07:51:45.000Z</time>
      </trkpt>
      <trkpt lat="44.84573" lon="5.39163">
        <ele>1544.62</ele>
        <time>2017-08-18T07:51:55.000Z</time>
      </trkpt>
      <trkpt lat="44.84565" lon="5.39169">
        <ele>1545.75</ele>
        <time>2017-08-18T07:52:09.000Z</time>
      </trkpt>
      <trkpt lat="44.84572" lon="5.3916">
        <ele>1543.45</ele>
        <time>2017-08-18T07:52:33.000Z</time>
      </trkpt>
      <trkpt lat="44.84561" lon="5.39154">
        <ele>1540.39</ele>
        <time>2017-08-18T07:52:43.000Z</time>
      </trkpt>
      <trkpt lat="44.84548" lon="5.39144">
        <ele>1535.43</ele>
        <time>2017-08-18T07:52:53.000Z</time>
      </trkpt>
      <trkpt lat="44.8454" lon="5.39137">
        <ele>1532.29</ele>
        <time>2017-08-18T07:53:06.000Z</time>
      </trkpt>
      <trkpt lat="44.8453" lon="5.39129">
        <ele>1528.61</ele>
        <time>2017-08-18T07:53:16.000Z</time>
      </trkpt>
      <trkpt lat="44.8452" lon="5.39127">
        <ele>1526.48</ele>
        <time>2017-08-18T07:53:34.000Z</time>
      </trkpt>
      <trkpt lat="44.84512" lon="5.39123">
        <ele>1523.79</ele>
        <time>2017-08-18T07:54:01.000Z</time>
      </trkpt>
      <trkpt lat="44.84496" lon="5.39113">
        <ele>1518.91</ele>
        <time>2017-08-18T07:54:11.000Z</time>
      </trkpt>
      <trkpt lat="44.84483" lon="5.3911">
        <ele>1516.29</ele>
        <time>2017-08-18T07:54:21.000Z</time>
      </trkpt>
      <trkpt lat="44.84474" lon="5.39106">
        <ele>1514.32</ele>
        <time>2017-08-18T07:54:31.000Z</time>
      </trkpt>
      <trkpt lat="44.84464" lon="5.39098">
        <ele>1512.12</ele>
        <time>2017-08-18T07:54:45.000Z</time>
      </trkpt>
      <trkpt lat="44.84448" lon="5.39087">
        <ele>1509.13</ele>
        <time>2017-08-18T07:54:56.000Z</time>
      </trkpt>
      <trkpt lat="44.84439" lon="5.39083">
        <ele>1507.59</ele>
        <time>2017-08-18T07:55:07.000Z</time>
      </trkpt>
      <trkpt lat="44.84428" lon="5.39077">
        <ele>1505.57</ele>
        <time>2017-08-18T07:55:17.000Z</time>
      </trkpt>
      <trkpt lat="44.84419" lon="5.39074">
        <ele>1503.78</ele>
        <time>2017-08-18T07:55:30.000Z</time>
      </trkpt>
      <trkpt lat="44.84409" lon="5.39068">
        <ele>1501.22</ele>
        <time>2017-08-18T07:55:40.000Z</time>
      </trkpt>
      <trkpt lat="44.844" lon="5.39074">
        <ele>1499.28</ele>
        <time>2017-08-18T07:55:52.000Z</time>
      </trkpt>
      <trkpt lat="44.84393" lon="5.39082">
        <ele>1497.03</ele>
        <time>2017-08-18T07:56:05.000Z</time>
      </trkpt>
      <trkpt lat="44.84401" lon="5.39075">
        <ele>1499.65</ele>
        <time>2017-08-18T07:58:00.000Z</time>
      </trkpt>
      <trkpt lat="44.84399" lon="5.39061">
        <ele>1498.13</ele>
        <time>2017-08-18T07:58:10.000Z</time>
      </trkpt>
      <trkpt lat="44.84407" lon="5.39054">
        <ele>1499.13</ele>
        <time>2017-08-18T07:58:20.000Z</time>
      </trkpt>
      <trkpt lat="44.84398" lon="5.39046">
        <ele>1496.07</ele>
        <time>2017-08-18T07:58:30.000Z</time>
      </trkpt>
      <trkpt lat="44.84384" lon="5.39035">
        <ele>1491.34</ele>
        <time>2017-08-18T07:58:40.000Z</time>
      </trkpt>
      <trkpt lat="44.84372" lon="5.39044">
        <ele>1489.27</ele>
        <time>2017-08-18T07:58:50.000Z</time>
      </trkpt>
      <trkpt lat="44.84378" lon="5.39034">
        <ele>1489.95</ele>
        <time>2017-08-18T07:59:03.000Z</time>
      </trkpt>
      <trkpt lat="44.84387" lon="5.39024">
        <ele>1490.56</ele>
        <time>2017-08-18T07:59:13.000Z</time>
      </trkpt>
      <trkpt lat="44.84396" lon="5.3902">
        <ele>1491.19</ele>
        <time>2017-08-18T07:59:34.000Z</time>
      </trkpt>
      <trkpt lat="44.844" lon="5.39008">
        <ele>1489.22</ele>
        <time>2017-08-18T08:00:07.000Z</time>
      </trkpt>
      <trkpt lat="44.84399" lon="5.38987">
        <ele>1483.99</ele>
        <time>2017-08-18T08:00:17.000Z</time>
      </trkpt>
      <trkpt lat="44.84397" lon="5.38974">
        <ele>1479.76</ele>
        <time>2017-08-18T08:00:27.000Z</time>
      </trkpt>
      <trkpt lat="44.84389" lon="5.38964">
        <ele>1476.16</ele>
        <time>2017-08-18T08:01:03.000Z</time>
      </trkpt>
      <trkpt lat="44.84374" lon="5.38949">
        <ele>1470.44</ele>
        <time>2017-08-18T08:01:13.000Z</time>
      </trkpt>
      <trkpt lat="44.84364" lon="5.38927">
        <ele>1463.2</ele>
        <time>2017-08-18T08:01:23.000Z</time>
      </trkpt>
      <trkpt lat="44.84355" lon="5.38914">
        <ele>1459.27</ele>
        <time>2017-08-18T08:01:33.000Z</time>
      </trkpt>
      <trkpt lat="44.84349" lon="5.38904">
        <ele>1456.06</ele>
        <time>2017-08-18T08:01:48.000Z</time>
      </trkpt>
      <trkpt lat="44.84344" lon="5.38894">
        <ele>1452.85</ele>
        <time>2017-08-18T08:01:58.000Z</time>
      </trkpt>
      <trkpt lat="44.84342" lon="5.38881">
        <ele>1448.82</ele>
        <time>2017-08-18T08:02:18.000Z</time>
      </trkpt>
      <trkpt lat="44.84336" lon="5.38871">
        <ele>1445.33</ele>
        <time>2017-08-18T08:02:39.000Z</time>
      </trkpt>
      <trkpt lat="44.84327" lon="5.38866">
        <ele>1443.26</ele>
        <time>2017-08-18T08:02:50.000Z</time>
      </trkpt>
      <trkpt lat="44.84326" lon="5.38853">
        <ele>1439.18</ele>
        <time>2017-08-18T08:03:00.000Z</time>
      </trkpt>
      <trkpt lat="44.84323" lon="5.3884">
        <ele>1435.24</ele>
        <time>2017-08-18T08:03:12.000Z</time>
      </trkpt>
      <trkpt lat="44.84319" lon="5.38828">
        <ele>1431.62</ele>
        <time>2017-08-18T08:03:24.000Z</time>
      </trkpt>
      <trkpt lat="44.84308" lon="5.38819">
        <ele>1429.05</ele>
        <time>2017-08-18T08:03:34.000Z</time>
      </trkpt>
      <trkpt lat="44.84301" lon="5.38809">
        <ele>1426.47</ele>
        <time>2017-08-18T08:03:44.000Z</time>
      </trkpt>
      <trkpt lat="44.84294" lon="5.38794">
        <ele>1423.39</ele>
        <time>2017-08-18T08:03:54.000Z</time>
      </trkpt>
      <trkpt lat="44.84288" lon="5.38784">
        <ele>1421.92</ele>
        <time>2017-08-18T08:04:05.000Z</time>
      </trkpt>
      <trkpt lat="44.84278" lon="5.38776">
        <ele>1421.11</ele>
        <time>2017-08-18T08:04:49.000Z</time>
      </trkpt>
      <trkpt lat="44.84261" lon="5.38765">
        <ele>1420.37</ele>
        <time>2017-08-18T08:04:59.000Z</time>
      </trkpt>
      <trkpt lat="44.84254" lon="5.3875">
        <ele>1419.07</ele>
        <time>2017-08-18T08:05:09.000Z</time>
      </trkpt>
      <trkpt lat="44.84244" lon="5.38737">
        <ele>1417.86</ele>
        <time>2017-08-18T08:05:19.000Z</time>
      </trkpt>
      <trkpt lat="44.84238" lon="5.38716">
        <ele>1416.96</ele>
        <time>2017-08-18T08:05:29.000Z</time>
      </trkpt>
      <trkpt lat="44.84229" lon="5.38717">
        <ele>1416.55</ele>
        <time>2017-08-18T08:06:11.000Z</time>
      </trkpt>
      <trkpt lat="44.84224" lon="5.38703">
        <ele>1416.71</ele>
        <time>2017-08-18T08:06:54.000Z</time>
      </trkpt>
      <trkpt lat="44.84218" lon="5.38673">
        <ele>1418.43</ele>
        <time>2017-08-18T08:07:04.000Z</time>
      </trkpt>
      <trkpt lat="44.84209" lon="5.38667">
        <ele>1419.12</ele>
        <time>2017-08-18T08:07:17.000Z</time>
      </trkpt>
      <trkpt lat="44.84203" lon="5.38653">
        <ele>1420.4</ele>
        <time>2017-08-18T08:07:27.000Z</time>
      </trkpt>
      <trkpt lat="44.84197" lon="5.38641">
        <ele>1421.61</ele>
        <time>2017-08-18T08:07:38.000Z</time>
      </trkpt>
      <trkpt lat="44.84191" lon="5.38626">
        <ele>1423.02</ele>
        <time>2017-08-18T08:07:48.000Z</time>
      </trkpt>
      <trkpt lat="44.84186" lon="5.38614">
        <ele>1424.12</ele>
        <time>2017-08-18T08:07:58.000Z</time>
      </trkpt>
      <trkpt lat="44.84178" lon="5.38602">
        <ele>1425.29</ele>
        <time>2017-08-18T08:08:08.000Z</time>
      </trkpt>
      <trkpt lat="44.84173" lon="5.38592">
        <ele>1426.26</ele>
        <time>2017-08-18T08:08:19.000Z</time>
      </trkpt>
      <trkpt lat="44.84164" lon="5.3858">
        <ele>1427.28</ele>
        <time>2017-08-18T08:08:29.000Z</time>
      </trkpt>
      <trkpt lat="44.84159" lon="5.38569">
        <ele>1428.11</ele>
        <time>2017-08-18T08:08:41.000Z</time>
      </trkpt>
      <trkpt lat="44.84152" lon="5.38559">
        <ele>1428.85</ele>
        <time>2017-08-18T08:08:51.000Z</time>
      </trkpt>
      <trkpt lat="44.84145" lon="5.38551">
        <ele>1429.56</ele>
        <time>2017-08-18T08:09:01.000Z</time>
      </trkpt>
      <trkpt lat="44.84139" lon="5.38541">
        <ele>1430.36</ele>
        <time>2017-08-18T08:09:11.000Z</time>
      </trkpt>
      <trkpt lat="44.84131" lon="5.38533">
        <ele>1431.24</ele>
        <time>2017-08-18T08:09:23.000Z</time>
      </trkpt>
      <trkpt lat="44.84125" lon="5.38523">
        <ele>1432.22</ele>
        <time>2017-08-18T08:09:35.000Z</time>
      </trkpt>
      <trkpt lat="44.84117" lon="5.38513">
        <ele>1433.41</ele>
        <time>2017-08-18T08:09:45.000Z</time>
      </trkpt>
      <trkpt lat="44.84109" lon="5.38499">
        <ele>1434.88</ele>
        <time>2017-08-18T08:09:55.000Z</time>
      </trkpt>
      <trkpt lat="44.84099" lon="5.38488">
        <ele>1436.08</ele>
        <time>2017-08-18T08:10:05.000Z</time>
      </trkpt>
      <trkpt lat="44.84091" lon="5.3848">
        <ele>1436.71</ele>
        <time>2017-08-18T08:10:15.000Z</time>
      </trkpt>
      <trkpt lat="44.84083" lon="5.38472">
        <ele>1437.12</ele>
        <time>2017-08-18T08:10:25.000Z</time>
      </trkpt>
      <trkpt lat="44.8408" lon="5.38458">
        <ele>1437.83</ele>
        <time>2017-08-18T08:10:35.000Z</time>
      </trkpt>
      <trkpt lat="44.84072" lon="5.38452">
        <ele>1438.11</ele>
        <time>2017-08-18T08:10:45.000Z</time>
      </trkpt>
      <trkpt lat="44.84066" lon="5.38438">
        <ele>1439.16</ele>
        <time>2017-08-18T08:10:55.000Z</time>
      </trkpt>
      <trkpt lat="44.8406" lon="5.38428">
        <ele>1440.27</ele>
        <time>2017-08-18T08:11:05.000Z</time>
      </trkpt>
      <trkpt lat="44.8405" lon="5.38417">
        <ele>1442.2</ele>
        <time>2017-08-18T08:11:15.000Z</time>
      </trkpt>
      <trkpt lat="44.8404" lon="5.38405">
        <ele>1444.83</ele>
        <time>2017-08-18T08:11:25.000Z</time>
      </trkpt>
      <trkpt lat="44.84035" lon="5.38393">
        <ele>1447.62</ele>
        <time>2017-08-18T08:11:35.000Z</time>
      </trkpt>
      <trkpt lat="44.84035" lon="5.38378">
        <ele>1450.37</ele>
        <time>2017-08-18T08:12:49.000Z</time>
      </trkpt>
      <trkpt lat="44.84025" lon="5.38368">
        <ele>1454.09</ele>
        <time>2017-08-18T08:12:59.000Z</time>
      </trkpt>
      <trkpt lat="44.84015" lon="5.38359">
        <ele>1457.59</ele>
        <time>2017-08-18T08:13:09.000Z</time>
      </trkpt>
      <trkpt lat="44.8401" lon="5.38347">
        <ele>1460.95</ele>
        <time>2017-08-18T08:13:20.000Z</time>
      </trkpt>
      <trkpt lat="44.84005" lon="5.38336">
        <ele>1463.97</ele>
        <time>2017-08-18T08:13:32.000Z</time>
      </trkpt>
      <trkpt lat="44.84" lon="5.38321">
        <ele>1467.32</ele>
        <time>2017-08-18T08:13:45.000Z</time>
      </trkpt>
      <trkpt lat="44.83991" lon="5.38312">
        <ele>1469.7</ele>
        <time>2017-08-18T08:13:55.000Z</time>
      </trkpt>
      <trkpt lat="44.83985" lon="5.38303">
        <ele>1471.52</ele>
        <time>2017-08-18T08:14:16.000Z</time>
      </trkpt>
      <trkpt lat="44.8398" lon="5.38292">
        <ele>1473.52</ele>
        <time>2017-08-18T08:14:41.000Z</time>
      </trkpt>
      <trkpt lat="44.83972" lon="5.3828">
        <ele>1475.64</ele>
        <time>2017-08-18T08:14:51.000Z</time>
      </trkpt>
      <trkpt lat="44.83965" lon="5.38271">
        <ele>1477.25</ele>
        <time>2017-08-18T08:15:03.000Z</time>
      </trkpt>
      <trkpt lat="44.8396" lon="5.38259">
        <ele>1479.06</ele>
        <time>2017-08-18T08:15:14.000Z</time>
      </trkpt>
      <trkpt lat="44.83954" lon="5.38249">
        <ele>1480.58</ele>
        <time>2017-08-18T08:15:26.000Z</time>
      </trkpt>
      <trkpt lat="44.8395" lon="5.38237">
        <ele>1482.17</ele>
        <time>2017-08-18T08:15:39.000Z</time>
      </trkpt>
      <trkpt lat="44.83943" lon="5.38229">
        <ele>1483.2</ele>
        <time>2017-08-18T08:16:05.000Z</time>
      </trkpt>
      <trkpt lat="44.83939" lon="5.38217">
        <ele>1484.33</ele>
        <time>2017-08-18T08:16:21.000Z</time>
      </trkpt>
      <trkpt lat="44.83931" lon="5.38208">
        <ele>1485.36</ele>
        <time>2017-08-18T08:16:31.000Z</time>
      </trkpt>
      <trkpt lat="44.83922" lon="5.38201">
        <ele>1486.34</ele>
        <time>2017-08-18T08:16:42.000Z</time>
      </trkpt>
      <trkpt lat="44.83917" lon="5.38189">
        <ele>1487.53</ele>
        <time>2017-08-18T08:16:52.000Z</time>
      </trkpt>
      <trkpt lat="44.83912" lon="5.38177">
        <ele>1488.81</ele>
        <time>2017-08-18T08:17:02.000Z</time>
      </trkpt>
      <trkpt lat="44.83907" lon="5.38165">
        <ele>1490.2</ele>
        <time>2017-08-18T08:17:16.000Z</time>
      </trkpt>
      <trkpt lat="44.83901" lon="5.38156">
        <ele>1491.72</ele>
        <time>2017-08-18T08:17:32.000Z</time>
      </trkpt>
      <trkpt lat="44.83894" lon="5.38147">
        <ele>1493.35</ele>
        <time>2017-08-18T08:17:45.000Z</time>
      </trkpt>
      <trkpt lat="44.83892" lon="5.38133">
        <ele>1494.14</ele>
        <time>2017-08-18T08:17:56.000Z</time>
      </trkpt>
      <trkpt lat="44.83885" lon="5.38122">
        <ele>1495.74</ele>
        <time>2017-08-18T08:18:11.000Z</time>
      </trkpt>
      <trkpt lat="44.83879" lon="5.38111">
        <ele>1497.36</ele>
        <time>2017-08-18T08:18:24.000Z</time>
      </trkpt>
      <trkpt lat="44.83872" lon="5.38102">
        <ele>1498.99</ele>
        <time>2017-08-18T08:18:48.000Z</time>
      </trkpt>
      <trkpt lat="44.83865" lon="5.38095">
        <ele>1500.8</ele>
        <time>2017-08-18T08:18:58.000Z</time>
      </trkpt>
      <trkpt lat="44.83855" lon="5.38082">
        <ele>1503.28</ele>
        <time>2017-08-18T08:19:08.000Z</time>
      </trkpt>
      <trkpt lat="44.83845" lon="5.38076">
        <ele>1505.29</ele>
        <time>2017-08-18T08:19:18.000Z</time>
      </trkpt>
      <trkpt lat="44.83832" lon="5.38066">
        <ele>1507.31</ele>
        <time>2017-08-18T08:19:28.000Z</time>
      </trkpt>
      <trkpt lat="44.8382" lon="5.38064">
        <ele>1508.18</ele>
        <time>2017-08-18T08:19:38.000Z</time>
      </trkpt>
      <trkpt lat="44.83809" lon="5.3806">
        <ele>1508.85</ele>
        <time>2017-08-18T08:19:48.000Z</time>
      </trkpt>
      <trkpt lat="44.838" lon="5.3806">
        <ele>1509.04</ele>
        <time>2017-08-18T08:19:58.000Z</time>
      </trkpt>
      <trkpt lat="44.83784" lon="5.3806">
        <ele>1509.01</ele>
        <time>2017-08-18T08:20:08.000Z</time>
      </trkpt>
      <trkpt lat="44.83776" lon="5.38054">
        <ele>1509.43</ele>
        <time>2017-08-18T08:20:18.000Z</time>
      </trkpt>
      <trkpt lat="44.83764" lon="5.38053">
        <ele>1509.12</ele>
        <time>2017-08-18T08:20:28.000Z</time>
      </trkpt>
      <trkpt lat="44.83749" lon="5.3804">
        <ele>1509.67</ele>
        <time>2017-08-18T08:20:38.000Z</time>
      </trkpt>
      <trkpt lat="44.83739" lon="5.38039">
        <ele>1508.92</ele>
        <time>2017-08-18T08:20:52.000Z</time>
      </trkpt>
      <trkpt lat="44.83731" lon="5.38033">
        <ele>1508.71</ele>
        <time>2017-08-18T08:21:11.000Z</time>
      </trkpt>
      <trkpt lat="44.83719" lon="5.38019">
        <ele>1508.4</ele>
        <time>2017-08-18T08:21:21.000Z</time>
      </trkpt>
      <trkpt lat="44.8371" lon="5.38007">
        <ele>1508.05</ele>
        <time>2017-08-18T08:21:31.000Z</time>
      </trkpt>
      <trkpt lat="44.83701" lon="5.37993">
        <ele>1508.06</ele>
        <time>2017-08-18T08:21:41.000Z</time>
      </trkpt>
      <trkpt lat="44.83693" lon="5.37985">
        <ele>1507.82</ele>
        <time>2017-08-18T08:21:51.000Z</time>
      </trkpt>
      <trkpt lat="44.83683" lon="5.37976">
        <ele>1507.89</ele>
        <time>2017-08-18T08:22:01.000Z</time>
      </trkpt>
      <trkpt lat="44.83673" lon="5.37973">
        <ele>1507.05</ele>
        <time>2017-08-18T08:22:11.000Z</time>
      </trkpt>
      <trkpt lat="44.83665" lon="5.37962">
        <ele>1508.18</ele>
        <time>2017-08-18T08:22:34.000Z</time>
      </trkpt>
      <trkpt lat="44.83652" lon="5.37952">
        <ele>1508.98</ele>
        <time>2017-08-18T08:22:44.000Z</time>
      </trkpt>
      <trkpt lat="44.83641" lon="5.37944">
        <ele>1509.62</ele>
        <time>2017-08-18T08:22:54.000Z</time>
      </trkpt>
      <trkpt lat="44.83629" lon="5.37941">
        <ele>1509.23</ele>
        <time>2017-08-18T08:23:04.000Z</time>
      </trkpt>
      <trkpt lat="44.8362" lon="5.37935">
        <ele>1509.82</ele>
        <time>2017-08-18T08:23:14.000Z</time>
      </trkpt>
      <trkpt lat="44.83612" lon="5.37926">
        <ele>1511.09</ele>
        <time>2017-08-18T08:23:24.000Z</time>
      </trkpt>
      <trkpt lat="44.83606" lon="5.37913">
        <ele>1513.14</ele>
        <time>2017-08-18T08:23:36.000Z</time>
      </trkpt>
      <trkpt lat="44.83599" lon="5.37903">
        <ele>1514.88</ele>
        <time>2017-08-18T08:23:48.000Z</time>
      </trkpt>
      <trkpt lat="44.83594" lon="5.37889">
        <ele>1517.97</ele>
        <time>2017-08-18T08:24:00.000Z</time>
      </trkpt>
      <trkpt lat="44.83584" lon="5.37886">
        <ele>1518.51</ele>
        <time>2017-08-18T08:24:11.000Z</time>
      </trkpt>
      <trkpt lat="44.83576" lon="5.37878">
        <ele>1520.37</ele>
        <time>2017-08-18T08:24:21.000Z</time>
      </trkpt>
      <trkpt lat="44.83569" lon="5.37864">
        <ele>1524.12</ele>
        <time>2017-08-18T08:24:31.000Z</time>
      </trkpt>
      <trkpt lat="44.83561" lon="5.37852">
        <ele>1526.63</ele>
        <time>2017-08-18T08:24:41.000Z</time>
      </trkpt>
      <trkpt lat="44.8355" lon="5.37843">
        <ele>1528.08</ele>
        <time>2017-08-18T08:24:51.000Z</time>
      </trkpt>
      <trkpt lat="44.83539" lon="5.37833">
        <ele>1529.21</ele>
        <time>2017-08-18T08:25:01.000Z</time>
      </trkpt>
      <trkpt lat="44.83531" lon="5.37821">
        <ele>1530.13</ele>
        <time>2017-08-18T08:25:11.000Z</time>
      </trkpt>
      <trkpt lat="44.83522" lon="5.37813">
        <ele>1530.52</ele>
        <time>2017-08-18T08:25:22.000Z</time>
      </trkpt>
      <trkpt lat="44.83513" lon="5.37809">
        <ele>1530.58</ele>
        <time>2017-08-18T08:25:32.000Z</time>
      </trkpt>
      <trkpt lat="44.83504" lon="5.37799">
        <ele>1530.96</ele>
        <time>2017-08-18T08:25:42.000Z</time>
      </trkpt>
      <trkpt lat="44.83495" lon="5.37785">
        <ele>1531.36</ele>
        <time>2017-08-18T08:25:52.000Z</time>
      </trkpt>
      <trkpt lat="44.83485" lon="5.37779">
        <ele>1531.1</ele>
        <time>2017-08-18T08:26:18.000Z</time>
      </trkpt>
      <trkpt lat="44.83471" lon="5.37766">
        <ele>1530.42</ele>
        <time>2017-08-18T08:26:28.000Z</time>
      </trkpt>
      <trkpt lat="44.83459" lon="5.37761">
        <ele>1529.47</ele>
        <time>2017-08-18T08:26:38.000Z</time>
      </trkpt>
      <trkpt lat="44.83446" lon="5.37755">
        <ele>1528.46</ele>
        <time>2017-08-18T08:26:48.000Z</time>
      </trkpt>
      <trkpt lat="44.83436" lon="5.37751">
        <ele>1527.77</ele>
        <time>2017-08-18T08:27:09.000Z</time>
      </trkpt>
      <trkpt lat="44.83424" lon="5.37747">
        <ele>1527.23</ele>
        <time>2017-08-18T08:27:19.000Z</time>
      </trkpt>
      <trkpt lat="44.83414" lon="5.37744">
        <ele>1527.09</ele>
        <time>2017-08-18T08:27:36.000Z</time>
      </trkpt>
      <trkpt lat="44.83401" lon="5.37742">
        <ele>1527.35</ele>
        <time>2017-08-18T08:27:46.000Z</time>
      </trkpt>
      <trkpt lat="44.83392" lon="5.37739">
        <ele>1527.78</ele>
        <time>2017-08-18T08:27:57.000Z</time>
      </trkpt>
      <trkpt lat="44.83382" lon="5.37739">
        <ele>1528.28</ele>
        <time>2017-08-18T08:28:07.000Z</time>
      </trkpt>
      <trkpt lat="44.8337" lon="5.37737">
        <ele>1528.93</ele>
        <time>2017-08-18T08:28:17.000Z</time>
      </trkpt>
      <trkpt lat="44.83357" lon="5.37736">
        <ele>1529.57</ele>
        <time>2017-08-18T08:28:27.000Z</time>
      </trkpt>
      <trkpt lat="44.83347" lon="5.37728">
        <ele>1529.92</ele>
        <time>2017-08-18T08:28:37.000Z</time>
      </trkpt>
      <trkpt lat="44.83335" lon="5.37723">
        <ele>1529.99</ele>
        <time>2017-08-18T08:28:47.000Z</time>
      </trkpt>
      <trkpt lat="44.83321" lon="5.37722">
        <ele>1529.71</ele>
        <time>2017-08-18T08:28:57.000Z</time>
      </trkpt>
      <trkpt lat="44.83311" lon="5.37721">
        <ele>1529.29</ele>
        <time>2017-08-18T08:29:07.000Z</time>
      </trkpt>
      <trkpt lat="44.83302" lon="5.37725">
        <ele>1528.76</ele>
        <time>2017-08-18T08:30:24.000Z</time>
      </trkpt>
      <trkpt lat="44.83293" lon="5.37725">
        <ele>1528.17</ele>
        <time>2017-08-18T08:32:16.000Z</time>
      </trkpt>
      <trkpt lat="44.8328" lon="5.37721">
        <ele>1527.46</ele>
        <time>2017-08-18T08:32:26.000Z</time>
      </trkpt>
      <trkpt lat="44.8327" lon="5.3772">
        <ele>1526.88</ele>
        <time>2017-08-18T08:32:38.000Z</time>
      </trkpt>
      <trkpt lat="44.83261" lon="5.37716">
        <ele>1526.58</ele>
        <time>2017-08-18T08:32:49.000Z</time>
      </trkpt>
      <trkpt lat="44.83249" lon="5.37712">
        <ele>1526.45</ele>
        <time>2017-08-18T08:32:59.000Z</time>
      </trkpt>
      <trkpt lat="44.83238" lon="5.37709">
        <ele>1526.34</ele>
        <time>2017-08-18T08:33:09.000Z</time>
      </trkpt>
      <trkpt lat="44.83223" lon="5.37702">
        <ele>1526.47</ele>
        <time>2017-08-18T08:33:19.000Z</time>
      </trkpt>
      <trkpt lat="44.83213" lon="5.377">
        <ele>1526.44</ele>
        <time>2017-08-18T08:33:29.000Z</time>
      </trkpt>
      <trkpt lat="44.83201" lon="5.37696">
        <ele>1526.4</ele>
        <time>2017-08-18T08:33:39.000Z</time>
      </trkpt>
      <trkpt lat="44.83188" lon="5.37692">
        <ele>1526.38</ele>
        <time>2017-08-18T08:33:49.000Z</time>
      </trkpt>
      <trkpt lat="44.83177" lon="5.37688">
        <ele>1526.42</ele>
        <time>2017-08-18T08:33:59.000Z</time>
      </trkpt>
      <trkpt lat="44.83164" lon="5.37682">
        <ele>1526.68</ele>
        <time>2017-08-18T08:34:09.000Z</time>
      </trkpt>
      <trkpt lat="44.83154" lon="5.37681">
        <ele>1526.94</ele>
        <time>2017-08-18T08:34:46.000Z</time>
      </trkpt>
      <trkpt lat="44.83145" lon="5.37678">
        <ele>1527.46</ele>
        <time>2017-08-18T08:35:00.000Z</time>
      </trkpt>
      <trkpt lat="44.83133" lon="5.37674">
        <ele>1528.43</ele>
        <time>2017-08-18T08:35:10.000Z</time>
      </trkpt>
      <trkpt lat="44.8312" lon="5.37667">
        <ele>1529.86</ele>
        <time>2017-08-18T08:35:20.000Z</time>
      </trkpt>
      <trkpt lat="44.83111" lon="5.37666">
        <ele>1530.58</ele>
        <time>2017-08-18T08:35:40.000Z</time>
      </trkpt>
      <trkpt lat="44.83101" lon="5.37666">
        <ele>1531.04</ele>
        <time>2017-08-18T08:35:59.000Z</time>
      </trkpt>
      <trkpt lat="44.83092" lon="5.37662">
        <ele>1531.74</ele>
        <time>2017-08-18T08:36:19.000Z</time>
      </trkpt>
      <trkpt lat="44.83083" lon="5.37653">
        <ele>1532.79</ele>
        <time>2017-08-18T08:36:29.000Z</time>
      </trkpt>
      <trkpt lat="44.83072" lon="5.37643">
        <ele>1533.83</ele>
        <time>2017-08-18T08:36:39.000Z</time>
      </trkpt>
      <trkpt lat="44.83063" lon="5.37639">
        <ele>1534.42</ele>
        <time>2017-08-18T08:36:49.000Z</time>
      </trkpt>
      <trkpt lat="44.83054" lon="5.37637">
        <ele>1534.92</ele>
        <time>2017-08-18T08:36:59.000Z</time>
      </trkpt>
      <trkpt lat="44.83042" lon="5.37632">
        <ele>1535.59</ele>
        <time>2017-08-18T08:37:09.000Z</time>
      </trkpt>
      <trkpt lat="44.83032" lon="5.37629">
        <ele>1535.8</ele>
        <time>2017-08-18T08:37:19.000Z</time>
      </trkpt>
      <trkpt lat="44.83022" lon="5.37626">
        <ele>1535.92</ele>
        <time>2017-08-18T08:37:29.000Z</time>
      </trkpt>
      <trkpt lat="44.83013" lon="5.37616">
        <ele>1536.52</ele>
        <time>2017-08-18T08:37:39.000Z</time>
      </trkpt>
      <trkpt lat="44.83006" lon="5.37607">
        <ele>1537.17</ele>
        <time>2017-08-18T08:37:59.000Z</time>
      </trkpt>
      <trkpt lat="44.83" lon="5.37596">
        <ele>1537.73</ele>
        <time>2017-08-18T08:38:34.000Z</time>
      </trkpt>
      <trkpt lat="44.82994" lon="5.37585">
        <ele>1538.15</ele>
        <time>2017-08-18T08:38:46.000Z</time>
      </trkpt>
      <trkpt lat="44.82987" lon="5.37568">
        <ele>1538.76</ele>
        <time>2017-08-18T08:38:56.000Z</time>
      </trkpt>
      <trkpt lat="44.82979" lon="5.37557">
        <ele>1538.88</ele>
        <time>2017-08-18T08:39:06.000Z</time>
      </trkpt>
      <trkpt lat="44.8297" lon="5.37551">
        <ele>1538.49</ele>
        <time>2017-08-18T08:40:00.000Z</time>
      </trkpt>
      <trkpt lat="44.82978" lon="5.37544">
        <ele>1539.73</ele>
        <time>2017-08-18T08:47:34.000Z</time>
      </trkpt>
      <trkpt lat="44.82969" lon="5.37533">
        <ele>1540.11</ele>
        <time>2017-08-18T08:47:45.000Z</time>
      </trkpt>
      <trkpt lat="44.82964" lon="5.37522">
        <ele>1540.72</ele>
        <time>2017-08-18T08:47:57.000Z</time>
      </trkpt>
      <trkpt lat="44.82957" lon="5.37513">
        <ele>1541.32</ele>
        <time>2017-08-18T08:48:07.000Z</time>
      </trkpt>
      <trkpt lat="44.82949" lon="5.37506">
        <ele>1541.84</ele>
        <time>2017-08-18T08:48:20.000Z</time>
      </trkpt>
      <trkpt lat="44.82944" lon="5.37495">
        <ele>1542.24</ele>
        <time>2017-08-18T08:48:32.000Z</time>
      </trkpt>
      <trkpt lat="44.82932" lon="5.37485">
        <ele>1542.45</ele>
        <time>2017-08-18T08:48:42.000Z</time>
      </trkpt>
      <trkpt lat="44.82924" lon="5.37477">
        <ele>1542.27</ele>
        <time>2017-08-18T08:48:52.000Z</time>
      </trkpt>
      <trkpt lat="44.82915" lon="5.37469">
        <ele>1541.78</ele>
        <time>2017-08-18T08:49:02.000Z</time>
      </trkpt>
      <trkpt lat="44.82909" lon="5.37458">
        <ele>1540.94</ele>
        <time>2017-08-18T08:49:12.000Z</time>
      </trkpt>
      <trkpt lat="44.829" lon="5.37446">
        <ele>1539.79</ele>
        <time>2017-08-18T08:49:22.000Z</time>
      </trkpt>
      <trkpt lat="44.8289" lon="5.37443">
        <ele>1539.1</ele>
        <time>2017-08-18T08:49:45.000Z</time>
      </trkpt>
      <trkpt lat="44.82877" lon="5.37434">
        <ele>1538.09</ele>
        <time>2017-08-18T08:49:55.000Z</time>
      </trkpt>
      <trkpt lat="44.82866" lon="5.37423">
        <ele>1537.46</ele>
        <time>2017-08-18T08:50:05.000Z</time>
      </trkpt>
      <trkpt lat="44.82858" lon="5.37417">
        <ele>1537.23</ele>
        <time>2017-08-18T08:50:15.000Z</time>
      </trkpt>
      <trkpt lat="44.82851" lon="5.37408">
        <ele>1536.99</ele>
        <time>2017-08-18T08:50:25.000Z</time>
      </trkpt>
      <trkpt lat="44.82841" lon="5.37405">
        <ele>1537.08</ele>
        <time>2017-08-18T08:50:38.000Z</time>
      </trkpt>
      <trkpt lat="44.82824" lon="5.37393">
        <ele>1537.42</ele>
        <time>2017-08-18T08:50:48.000Z</time>
      </trkpt>
      <trkpt lat="44.82812" lon="5.37386">
        <ele>1538.32</ele>
        <time>2017-08-18T08:50:58.000Z</time>
      </trkpt>
      <trkpt lat="44.82802" lon="5.37384">
        <ele>1539.31</ele>
        <time>2017-08-18T08:51:08.000Z</time>
      </trkpt>
      <trkpt lat="44.82793" lon="5.37386">
        <ele>1540.41</ele>
        <time>2017-08-18T08:51:25.000Z</time>
      </trkpt>
      <trkpt lat="44.82784" lon="5.37385">
        <ele>1541.18</ele>
        <time>2017-08-18T08:51:36.000Z</time>
      </trkpt>
      <trkpt lat="44.82773" lon="5.37381">
        <ele>1541.73</ele>
        <time>2017-08-18T08:51:46.000Z</time>
      </trkpt>
      <trkpt lat="44.82764" lon="5.37376">
        <ele>1541.87</ele>
        <time>2017-08-18T08:51:56.000Z</time>
      </trkpt>
      <trkpt lat="44.82753" lon="5.37374">
        <ele>1541.51</ele>
        <time>2017-08-18T08:53:09.000Z</time>
      </trkpt>
      <trkpt lat="44.82737" lon="5.37367">
        <ele>1540.02</ele>
        <time>2017-08-18T08:53:19.000Z</time>
      </trkpt>
      <trkpt lat="44.82726" lon="5.37359">
        <ele>1538.8</ele>
        <time>2017-08-18T08:53:29.000Z</time>
      </trkpt>
      <trkpt lat="44.82717" lon="5.37352">
        <ele>1537.86</ele>
        <time>2017-08-18T08:53:39.000Z</time>
      </trkpt>
      <trkpt lat="44.82709" lon="5.37347">
        <ele>1536.94</ele>
        <time>2017-08-18T08:53:54.000Z</time>
      </trkpt>
      <trkpt lat="44.82701" lon="5.37339">
        <ele>1536.28</ele>
        <time>2017-08-18T08:54:14.000Z</time>
      </trkpt>
      <trkpt lat="44.82693" lon="5.37333">
        <ele>1535.27</ele>
        <time>2017-08-18T08:55:04.000Z</time>
      </trkpt>
      <trkpt lat="44.82684" lon="5.37329">
        <ele>1533.8</ele>
        <time>2017-08-18T08:56:38.000Z</time>
      </trkpt>
      <trkpt lat="44.82676" lon="5.37321">
        <ele>1532.57</ele>
        <time>2017-08-18T08:58:06.000Z</time>
      </trkpt>
      <trkpt lat="44.82666" lon="5.37319">
        <ele>1530.42</ele>
        <time>2017-08-18T08:58:17.000Z</time>
      </trkpt>
      <trkpt lat="44.82658" lon="5.37313">
        <ele>1528.3</ele>
        <time>2017-08-18T08:58:30.000Z</time>
      </trkpt>
      <trkpt lat="44.82649" lon="5.37305">
        <ele>1526.3</ele>
        <time>2017-08-18T08:59:25.000Z</time>
      </trkpt>
      <trkpt lat="44.82637" lon="5.37298">
        <ele>1523.17</ele>
        <time>2017-08-18T08:59:35.000Z</time>
      </trkpt>
      <trkpt lat="44.82628" lon="5.37291">
        <ele>1521.44</ele>
        <time>2017-08-18T08:59:45.000Z</time>
      </trkpt>
      <trkpt lat="44.8262" lon="5.37284">
        <ele>1519.83</ele>
        <time>2017-08-18T08:59:55.000Z</time>
      </trkpt>
      <trkpt lat="44.82611" lon="5.37278">
        <ele>1518.17</ele>
        <time>2017-08-18T09:00:25.000Z</time>
      </trkpt>
      <trkpt lat="44.82613" lon="5.37265">
        <ele>1520.88</ele>
        <time>2017-08-18T09:01:10.000Z</time>
      </trkpt>
      <trkpt lat="44.8262" lon="5.37252">
        <ele>1523.56</ele>
        <time>2017-08-18T09:01:31.000Z</time>
      </trkpt>
      <trkpt lat="44.82623" lon="5.37237">
        <ele>1523.95</ele>
        <time>2017-08-18T09:01:45.000Z</time>
      </trkpt>
      <trkpt lat="44.82613" lon="5.37224">
        <ele>1522.59</ele>
        <time>2017-08-18T09:01:55.000Z</time>
      </trkpt>
      <trkpt lat="44.82609" lon="5.37211">
        <ele>1521.34</ele>
        <time>2017-08-18T09:02:52.000Z</time>
      </trkpt>
      <trkpt lat="44.82598" lon="5.37192">
        <ele>1518.85</ele>
        <time>2017-08-18T09:03:02.000Z</time>
      </trkpt>
      <trkpt lat="44.82589" lon="5.37176">
        <ele>1516.53</ele>
        <time>2017-08-18T09:03:12.000Z</time>
      </trkpt>
      <trkpt lat="44.8258" lon="5.37166">
        <ele>1514.52</ele>
        <time>2017-08-18T09:03:22.000Z</time>
      </trkpt>
      <trkpt lat="44.82571" lon="5.37157">
        <ele>1512.31</ele>
        <time>2017-08-18T09:03:32.000Z</time>
      </trkpt>
      <trkpt lat="44.82562" lon="5.37147">
        <ele>1510.07</ele>
        <time>2017-08-18T09:03:42.000Z</time>
      </trkpt>
      <trkpt lat="44.82554" lon="5.3714">
        <ele>1508.46</ele>
        <time>2017-08-18T09:03:52.000Z</time>
      </trkpt>
      <trkpt lat="44.82547" lon="5.37129">
        <ele>1507.69</ele>
        <time>2017-08-18T09:04:02.000Z</time>
      </trkpt>
      <trkpt lat="44.82538" lon="5.37124">
        <ele>1507.2</ele>
        <time>2017-08-18T09:04:15.000Z</time>
      </trkpt>
      <trkpt lat="44.82528" lon="5.37118">
        <ele>1507.14</ele>
        <time>2017-08-18T09:04:25.000Z</time>
      </trkpt>
      <trkpt lat="44.82518" lon="5.37115">
        <ele>1506.96</ele>
        <time>2017-08-18T09:04:35.000Z</time>
      </trkpt>
      <trkpt lat="44.82509" lon="5.37113">
        <ele>1506.49</ele>
        <time>2017-08-18T09:04:45.000Z</time>
      </trkpt>
      <trkpt lat="44.825" lon="5.37109">
        <ele>1506.58</ele>
        <time>2017-08-18T09:05:25.000Z</time>
      </trkpt>
      <trkpt lat="44.82489" lon="5.37097">
        <ele>1508.35</ele>
        <time>2017-08-18T09:05:35.000Z</time>
      </trkpt>
      <trkpt lat="44.82479" lon="5.37093">
        <ele>1507.76</ele>
        <time>2017-08-18T09:05:45.000Z</time>
      </trkpt>
      <trkpt lat="44.82469" lon="5.37088">
        <ele>1507.1</ele>
        <time>2017-08-18T09:05:55.000Z</time>
      </trkpt>
      <trkpt lat="44.82462" lon="5.37079">
        <ele>1507.62</ele>
        <time>2017-08-18T09:06:07.000Z</time>
      </trkpt>
      <trkpt lat="44.82454" lon="5.37071">
        <ele>1507.62</ele>
        <time>2017-08-18T09:06:19.000Z</time>
      </trkpt>
      <trkpt lat="44.82445" lon="5.37065">
        <ele>1507.23</ele>
        <time>2017-08-18T09:06:29.000Z</time>
      </trkpt>
      <trkpt lat="44.82435" lon="5.37061">
        <ele>1506.43</ele>
        <time>2017-08-18T09:06:39.000Z</time>
      </trkpt>
      <trkpt lat="44.82426" lon="5.37055">
        <ele>1506.29</ele>
        <time>2017-08-18T09:06:50.000Z</time>
      </trkpt>
      <trkpt lat="44.82416" lon="5.3705">
        <ele>1505.57</ele>
        <time>2017-08-18T09:07:00.000Z</time>
      </trkpt>
      <trkpt lat="44.82405" lon="5.37043">
        <ele>1505.27</ele>
        <time>2017-08-18T09:07:10.000Z</time>
      </trkpt>
      <trkpt lat="44.82397" lon="5.37037">
        <ele>1505.09</ele>
        <time>2017-08-18T09:07:24.000Z</time>
      </trkpt>
      <trkpt lat="44.82387" lon="5.37033">
        <ele>1503.72</ele>
        <time>2017-08-18T09:07:40.000Z</time>
      </trkpt>
      <trkpt lat="44.82378" lon="5.37026">
        <ele>1503.47</ele>
        <time>2017-08-18T09:09:59.000Z</time>
      </trkpt>
      <trkpt lat="44.82387" lon="5.37031">
        <ele>1504.53</ele>
        <time>2017-08-18T09:10:09.000Z</time>
      </trkpt>
      <trkpt lat="44.82393" lon="5.37019">
        <ele>1509.09</ele>
        <time>2017-08-18T09:13:34.000Z</time>
      </trkpt>
      <trkpt lat="44.82398" lon="5.37008">
        <ele>1512.09</ele>
        <time>2017-08-18T09:13:47.000Z</time>
      </trkpt>
      <trkpt lat="44.82402" lon="5.36997">
        <ele>1513.63</ele>
        <time>2017-08-18T09:14:02.000Z</time>
      </trkpt>
      <trkpt lat="44.82407" lon="5.36985">
        <ele>1513.62</ele>
        <time>2017-08-18T09:14:15.000Z</time>
      </trkpt>
      <trkpt lat="44.82411" lon="5.36973">
        <ele>1512.12</ele>
        <time>2017-08-18T09:14:28.000Z</time>
      </trkpt>
      <trkpt lat="44.82416" lon="5.36961">
        <ele>1509.62</ele>
        <time>2017-08-18T09:14:51.000Z</time>
      </trkpt>
      <trkpt lat="44.82409" lon="5.36969">
        <ele>1511.58</ele>
        <time>2017-08-18T09:15:11.000Z</time>
      </trkpt>
      <trkpt lat="44.82398" lon="5.36971">
        <ele>1512.09</ele>
        <time>2017-08-18T09:15:21.000Z</time>
      </trkpt>
      <trkpt lat="44.8239" lon="5.36964">
        <ele>1511.07</ele>
        <time>2017-08-18T09:15:40.000Z</time>
      </trkpt>
      <trkpt lat="44.8238" lon="5.36961">
        <ele>1510.51</ele>
        <time>2017-08-18T09:15:57.000Z</time>
      </trkpt>
      <trkpt lat="44.82371" lon="5.36959">
        <ele>1509.8</ele>
        <time>2017-08-18T09:16:10.000Z</time>
      </trkpt>
      <trkpt lat="44.82362" lon="5.36957">
        <ele>1508.85</ele>
        <time>2017-08-18T09:16:27.000Z</time>
      </trkpt>
      <trkpt lat="44.82354" lon="5.3695">
        <ele>1507.73</ele>
        <time>2017-08-18T09:16:37.000Z</time>
      </trkpt>
      <trkpt lat="44.82344" lon="5.36943">
        <ele>1506.16</ele>
        <time>2017-08-18T09:16:47.000Z</time>
      </trkpt>
      <trkpt lat="44.82336" lon="5.36935">
        <ele>1504.8</ele>
        <time>2017-08-18T09:16:58.000Z</time>
      </trkpt>
      <trkpt lat="44.82328" lon="5.36929">
        <ele>1503.24</ele>
        <time>2017-08-18T09:17:33.000Z</time>
      </trkpt>
      <trkpt lat="44.82323" lon="5.36919">
        <ele>1502.05</ele>
        <time>2017-08-18T09:17:43.000Z</time>
      </trkpt>
      <trkpt lat="44.82314" lon="5.36915">
        <ele>1500.04</ele>
        <time>2017-08-18T09:17:53.000Z</time>
      </trkpt>
      <trkpt lat="44.82306" lon="5.36906">
        <ele>1497.91</ele>
        <time>2017-08-18T09:18:04.000Z</time>
      </trkpt>
      <trkpt lat="44.82297" lon="5.36906">
        <ele>1495.1</ele>
        <time>2017-08-18T09:18:17.000Z</time>
      </trkpt>
      <trkpt lat="44.82288" lon="5.36903">
        <ele>1492.04</ele>
        <time>2017-08-18T09:18:29.000Z</time>
      </trkpt>
      <trkpt lat="44.82297" lon="5.36908">
        <ele>1495.01</ele>
        <time>2017-08-18T10:06:55.000Z</time>
      </trkpt>
      <trkpt lat="44.82306" lon="5.36912">
        <ele>1497.83</ele>
        <time>2017-08-18T10:07:07.000Z</time>
      </trkpt>
      <trkpt lat="44.82315" lon="5.36916">
        <ele>1500.12</ele>
        <time>2017-08-18T10:07:22.000Z</time>
      </trkpt>
      <trkpt lat="44.82323" lon="5.3692">
        <ele>1502.19</ele>
        <time>2017-08-18T10:07:40.000Z</time>
      </trkpt>
      <trkpt lat="44.82329" lon="5.36931">
        <ele>1503.38</ele>
        <time>2017-08-18T10:08:00.000Z</time>
      </trkpt>
      <trkpt lat="44.82337" lon="5.36939">
        <ele>1504.98</ele>
        <time>2017-08-18T10:08:40.000Z</time>
      </trkpt>
      <trkpt lat="44.82344" lon="5.36948">
        <ele>1506.26</ele>
        <time>2017-08-18T10:08:51.000Z</time>
      </trkpt>
      <trkpt lat="44.82353" lon="5.36952">
        <ele>1507.63</ele>
        <time>2017-08-18T10:09:03.000Z</time>
      </trkpt>
      <trkpt lat="44.82362" lon="5.36954">
        <ele>1508.73</ele>
        <time>2017-08-18T10:09:14.000Z</time>
      </trkpt>
      <trkpt lat="44.82372" lon="5.36953">
        <ele>1509.3</ele>
        <time>2017-08-18T10:09:29.000Z</time>
      </trkpt>
      <trkpt lat="44.8238" lon="5.36947">
        <ele>1508.75</ele>
        <time>2017-08-18T10:09:39.000Z</time>
      </trkpt>
      <trkpt lat="44.82388" lon="5.36951">
        <ele>1509.2</ele>
        <time>2017-08-18T10:09:53.000Z</time>
      </trkpt>
      <trkpt lat="44.8239" lon="5.36967">
        <ele>1511.45</ele>
        <time>2017-08-18T10:10:14.000Z</time>
      </trkpt>
      <trkpt lat="44.824" lon="5.36964">
        <ele>1510.94</ele>
        <time>2017-08-18T10:10:44.000Z</time>
      </trkpt>
      <trkpt lat="44.82419" lon="5.36962">
        <ele>1509.57</ele>
        <time>2017-08-18T10:10:54.000Z</time>
      </trkpt>
      <trkpt lat="44.82424" lon="5.36974">
        <ele>1511.37</ele>
        <time>2017-08-18T10:11:07.000Z</time>
      </trkpt>
      <trkpt lat="44.82428" lon="5.36986">
        <ele>1512.5</ele>
        <time>2017-08-18T10:11:17.000Z</time>
      </trkpt>
      <trkpt lat="44.82432" lon="5.36997">
        <ele>1512.77</ele>
        <time>2017-08-18T10:11:28.000Z</time>
      </trkpt>
      <trkpt lat="44.82436" lon="5.3701">
        <ele>1512.39</ele>
        <time>2017-08-18T10:11:40.000Z</time>
      </trkpt>
      <trkpt lat="44.82443" lon="5.37021">
        <ele>1511.29</ele>
        <time>2017-08-18T10:11:53.000Z</time>
      </trkpt>
      <trkpt lat="44.82448" lon="5.37032">
        <ele>1510.56</ele>
        <time>2017-08-18T10:12:04.000Z</time>
      </trkpt>
      <trkpt lat="44.82456" lon="5.37041">
        <ele>1509.96</ele>
        <time>2017-08-18T10:12:15.000Z</time>
      </trkpt>
      <trkpt lat="44.82462" lon="5.3706">
        <ele>1509.64</ele>
        <time>2017-08-18T10:12:25.000Z</time>
      </trkpt>
      <trkpt lat="44.82473" lon="5.37072">
        <ele>1509.91</ele>
        <time>2017-08-18T10:12:35.000Z</time>
      </trkpt>
      <trkpt lat="44.82482" lon="5.37077">
        <ele>1510.38</ele>
        <time>2017-08-18T10:12:45.000Z</time>
      </trkpt>
      <trkpt lat="44.8249" lon="5.37084">
        <ele>1510.39</ele>
        <time>2017-08-18T10:12:55.000Z</time>
      </trkpt>
      <trkpt lat="44.82496" lon="5.37095">
        <ele>1509.3</ele>
        <time>2017-08-18T10:13:05.000Z</time>
      </trkpt>
      <trkpt lat="44.82505" lon="5.37105">
        <ele>1508.12</ele>
        <time>2017-08-18T10:13:15.000Z</time>
      </trkpt>
      <trkpt lat="44.82513" lon="5.37113">
        <ele>1506.9</ele>
        <time>2017-08-18T10:13:25.000Z</time>
      </trkpt>
      <trkpt lat="44.82523" lon="5.37119">
        <ele>1506.56</ele>
        <time>2017-08-18T10:13:35.000Z</time>
      </trkpt>
      <trkpt lat="44.82534" lon="5.37129">
        <ele>1506.05</ele>
        <time>2017-08-18T10:13:45.000Z</time>
      </trkpt>
      <trkpt lat="44.82543" lon="5.37134">
        <ele>1506.99</ele>
        <time>2017-08-18T10:13:55.000Z</time>
      </trkpt>
      <trkpt lat="44.8255" lon="5.37143">
        <ele>1507.64</ele>
        <time>2017-08-18T10:14:05.000Z</time>
      </trkpt>
      <trkpt lat="44.82561" lon="5.3715">
        <ele>1510.05</ele>
        <time>2017-08-18T10:14:15.000Z</time>
      </trkpt>
      <trkpt lat="44.82572" lon="5.37157">
        <ele>1512.47</ele>
        <time>2017-08-18T10:14:25.000Z</time>
      </trkpt>
      <trkpt lat="44.8258" lon="5.37164">
        <ele>1514.38</ele>
        <time>2017-08-18T10:14:35.000Z</time>
      </trkpt>
      <trkpt lat="44.8259" lon="5.37177">
        <ele>1516.68</ele>
        <time>2017-08-18T10:14:45.000Z</time>
      </trkpt>
      <trkpt lat="44.826" lon="5.37183">
        <ele>1517.97</ele>
        <time>2017-08-18T10:14:55.000Z</time>
      </trkpt>
      <trkpt lat="44.82609" lon="5.37192">
        <ele>1519.34</ele>
        <time>2017-08-18T10:15:05.000Z</time>
      </trkpt>
      <trkpt lat="44.82613" lon="5.37204">
        <ele>1520.82</ele>
        <time>2017-08-18T10:15:15.000Z</time>
      </trkpt>
      <trkpt lat="44.82622" lon="5.37216">
        <ele>1522.37</ele>
        <time>2017-08-18T10:15:25.000Z</time>
      </trkpt>
      <trkpt lat="44.82631" lon="5.37223">
        <ele>1523.23</ele>
        <time>2017-08-18T10:15:37.000Z</time>
      </trkpt>
      <trkpt lat="44.8264" lon="5.37235">
        <ele>1524.66</ele>
        <time>2017-08-18T10:15:47.000Z</time>
      </trkpt>
      <trkpt lat="44.82646" lon="5.37245">
        <ele>1525.85</ele>
        <time>2017-08-18T10:15:57.000Z</time>
      </trkpt>
      <trkpt lat="44.82651" lon="5.37256">
        <ele>1526.95</ele>
        <time>2017-08-18T10:16:07.000Z</time>
      </trkpt>
      <trkpt lat="44.82658" lon="5.37265">
        <ele>1528.08</ele>
        <time>2017-08-18T10:16:18.000Z</time>
      </trkpt>
      <trkpt lat="44.82667" lon="5.37275">
        <ele>1529.82</ele>
        <time>2017-08-18T10:16:28.000Z</time>
      </trkpt>
      <trkpt lat="44.82674" lon="5.37285">
        <ele>1531.43</ele>
        <time>2017-08-18T10:16:44.000Z</time>
      </trkpt>
      <trkpt lat="44.8268" lon="5.37297">
        <ele>1532.92</ele>
        <time>2017-08-18T10:16:56.000Z</time>
      </trkpt>
      <trkpt lat="44.82688" lon="5.37305">
        <ele>1534.28</ele>
        <time>2017-08-18T10:17:09.000Z</time>
      </trkpt>
      <trkpt lat="44.82696" lon="5.37309">
        <ele>1535.35</ele>
        <time>2017-08-18T10:17:19.000Z</time>
      </trkpt>
      <trkpt lat="44.82703" lon="5.37319">
        <ele>1536.51</ele>
        <time>2017-08-18T10:17:32.000Z</time>
      </trkpt>
      <trkpt lat="44.82706" lon="5.37332">
        <ele>1537.08</ele>
        <time>2017-08-18T10:17:46.000Z</time>
      </trkpt>
      <trkpt lat="44.82714" lon="5.3734">
        <ele>1537.85</ele>
        <time>2017-08-18T10:17:58.000Z</time>
      </trkpt>
      <trkpt lat="44.82721" lon="5.37348">
        <ele>1538.5</ele>
        <time>2017-08-18T10:18:09.000Z</time>
      </trkpt>
      <trkpt lat="44.82727" lon="5.37359">
        <ele>1538.91</ele>
        <time>2017-08-18T10:18:21.000Z</time>
      </trkpt>
      <trkpt lat="44.82736" lon="5.37364">
        <ele>1539.99</ele>
        <time>2017-08-18T10:18:58.000Z</time>
      </trkpt>
      <trkpt lat="44.82753" lon="5.37362">
        <ele>1541.27</ele>
        <time>2017-08-18T10:19:08.000Z</time>
      </trkpt>
      <trkpt lat="44.82758" lon="5.37374">
        <ele>1541.76</ele>
        <time>2017-08-18T10:19:19.000Z</time>
      </trkpt>
      <trkpt lat="44.82769" lon="5.37384">
        <ele>1541.82</ele>
        <time>2017-08-18T10:20:09.000Z</time>
      </trkpt>
      <trkpt lat="44.82782" lon="5.37392">
        <ele>1541.2</ele>
        <time>2017-08-18T10:20:19.000Z</time>
      </trkpt>
      <trkpt lat="44.8279" lon="5.37386">
        <ele>1540.64</ele>
        <time>2017-08-18T10:20:29.000Z</time>
      </trkpt>
      <trkpt lat="44.82806" lon="5.37386">
        <ele>1539.03</ele>
        <time>2017-08-18T10:20:39.000Z</time>
      </trkpt>
      <trkpt lat="44.82815" lon="5.3739">
        <ele>1538.17</ele>
        <time>2017-08-18T10:20:50.000Z</time>
      </trkpt>
      <trkpt lat="44.82829" lon="5.37394">
        <ele>1537.11</ele>
        <time>2017-08-18T10:21:00.000Z</time>
      </trkpt>
      <trkpt lat="44.82837" lon="5.37407">
        <ele>1537.22</ele>
        <time>2017-08-18T10:21:10.000Z</time>
      </trkpt>
      <trkpt lat="44.82853" lon="5.37414">
        <ele>1537.15</ele>
        <time>2017-08-18T10:21:20.000Z</time>
      </trkpt>
      <trkpt lat="44.82864" lon="5.37424">
        <ele>1537.38</ele>
        <time>2017-08-18T10:21:30.000Z</time>
      </trkpt>
      <trkpt lat="44.82869" lon="5.37437">
        <ele>1537.49</ele>
        <time>2017-08-18T10:21:40.000Z</time>
      </trkpt>
      <trkpt lat="44.82877" lon="5.37444">
        <ele>1538.02</ele>
        <time>2017-08-18T10:21:58.000Z</time>
      </trkpt>
      <trkpt lat="44.82886" lon="5.37447">
        <ele>1538.95</ele>
        <time>2017-08-18T10:22:09.000Z</time>
      </trkpt>
      <trkpt lat="44.82901" lon="5.37444">
        <ele>1539.62</ele>
        <time>2017-08-18T10:22:19.000Z</time>
      </trkpt>
      <trkpt lat="44.82906" lon="5.37456">
        <ele>1540.71</ele>
        <time>2017-08-18T10:22:29.000Z</time>
      </trkpt>
      <trkpt lat="44.82913" lon="5.37469">
        <ele>1541.71</ele>
        <time>2017-08-18T10:22:39.000Z</time>
      </trkpt>
      <trkpt lat="44.82919" lon="5.3748">
        <ele>1542.23</ele>
        <time>2017-08-18T10:22:49.000Z</time>
      </trkpt>
      <trkpt lat="44.82932" lon="5.37484">
        <ele>1542.45</ele>
        <time>2017-08-18T10:22:59.000Z</time>
      </trkpt>
      <trkpt lat="44.82943" lon="5.37492">
        <ele>1542.26</ele>
        <time>2017-08-18T10:23:09.000Z</time>
      </trkpt>
      <trkpt lat="44.82953" lon="5.37503">
        <ele>1541.77</ele>
        <time>2017-08-18T10:23:36.000Z</time>
      </trkpt>
      <trkpt lat="44.82969" lon="5.37513">
        <ele>1540.8</ele>
        <time>2017-08-18T10:23:46.000Z</time>
      </trkpt>
      <trkpt lat="44.82966" lon="5.37526">
        <ele>1540.52</ele>
        <time>2017-08-18T10:23:59.000Z</time>
      </trkpt>
      <trkpt lat="44.82975" lon="5.37536">
        <ele>1540.04</ele>
        <time>2017-08-18T10:24:09.000Z</time>
      </trkpt>
      <trkpt lat="44.82981" lon="5.37549">
        <ele>1539.62</ele>
        <time>2017-08-18T10:24:19.000Z</time>
      </trkpt>
      <trkpt lat="44.82988" lon="5.37562">
        <ele>1539.34</ele>
        <time>2017-08-18T10:24:29.000Z</time>
      </trkpt>
      <trkpt lat="44.82995" lon="5.37576">
        <ele>1539.05</ele>
        <time>2017-08-18T10:24:39.000Z</time>
      </trkpt>
      <trkpt lat="44.82997" lon="5.37588">
        <ele>1538.24</ele>
        <time>2017-08-18T10:24:50.000Z</time>
      </trkpt>
      <trkpt lat="44.83003" lon="5.37599">
        <ele>1537.8</ele>
        <time>2017-08-18T10:25:19.000Z</time>
      </trkpt>
      <trkpt lat="44.83012" lon="5.37612">
        <ele>1536.96</ele>
        <time>2017-08-18T10:25:29.000Z</time>
      </trkpt>
      <trkpt lat="44.83022" lon="5.37623">
        <ele>1536.31</ele>
        <time>2017-08-18T10:25:39.000Z</time>
      </trkpt>
      <trkpt lat="44.8303" lon="5.37631">
        <ele>1535.47</ele>
        <time>2017-08-18T10:25:49.000Z</time>
      </trkpt>
      <trkpt lat="44.83043" lon="5.37637">
        <ele>1534.95</ele>
        <time>2017-08-18T10:25:59.000Z</time>
      </trkpt>
      <trkpt lat="44.83055" lon="5.37638">
        <ele>1534.7</ele>
        <time>2017-08-18T10:26:09.000Z</time>
      </trkpt>
      <trkpt lat="44.83064" lon="5.37644">
        <ele>1533.95</ele>
        <time>2017-08-18T10:26:19.000Z</time>
      </trkpt>
      <trkpt lat="44.83073" lon="5.37646">
        <ele>1533.52</ele>
        <time>2017-08-18T10:26:50.000Z</time>
      </trkpt>
      <trkpt lat="44.83087" lon="5.37659">
        <ele>1532.14</ele>
        <time>2017-08-18T10:27:00.000Z</time>
      </trkpt>
      <trkpt lat="44.83096" lon="5.37669">
        <ele>1530.71</ele>
        <time>2017-08-18T10:27:10.000Z</time>
      </trkpt>
      <trkpt lat="44.83101" lon="5.37681">
        <ele>1528.45</ele>
        <time>2017-08-18T10:27:22.000Z</time>
      </trkpt>
      <trkpt lat="44.83105" lon="5.37693">
        <ele>1525.73</ele>
        <time>2017-08-18T10:27:35.000Z</time>
      </trkpt>
      <trkpt lat="44.83112" lon="5.37701">
        <ele>1523.89</ele>
        <time>2017-08-18T10:27:46.000Z</time>
      </trkpt>
      <trkpt lat="44.83115" lon="5.37714">
        <ele>1520.76</ele>
        <time>2017-08-18T10:27:57.000Z</time>
      </trkpt>
      <trkpt lat="44.83116" lon="5.37727">
        <ele>1517.58</ele>
        <time>2017-08-18T10:28:10.000Z</time>
      </trkpt>
      <trkpt lat="44.8312" lon="5.37739">
        <ele>1515.42</ele>
        <time>2017-08-18T10:28:20.000Z</time>
      </trkpt>
      <trkpt lat="44.83127" lon="5.37751">
        <ele>1514.31</ele>
        <time>2017-08-18T10:28:30.000Z</time>
      </trkpt>
      <trkpt lat="44.8313" lon="5.37765">
        <ele>1512.86</ele>
        <time>2017-08-18T10:28:41.000Z</time>
      </trkpt>
      <trkpt lat="44.83132" lon="5.37782">
        <ele>1511.06</ele>
        <time>2017-08-18T10:29:13.000Z</time>
      </trkpt>
      <trkpt lat="44.83131" lon="5.37806">
        <ele>1507.92</ele>
        <time>2017-08-18T10:29:23.000Z</time>
      </trkpt>
      <trkpt lat="44.83133" lon="5.37828">
        <ele>1506.32</ele>
        <time>2017-08-18T10:29:33.000Z</time>
      </trkpt>
      <trkpt lat="44.83138" lon="5.37845">
        <ele>1506.29</ele>
        <time>2017-08-18T10:29:43.000Z</time>
      </trkpt>
      <trkpt lat="44.83131" lon="5.37857">
        <ele>1504.31</ele>
        <time>2017-08-18T10:29:53.000Z</time>
      </trkpt>
      <trkpt lat="44.83129" lon="5.37874">
        <ele>1503.46</ele>
        <time>2017-08-18T10:30:03.000Z</time>
      </trkpt>
      <trkpt lat="44.83134" lon="5.37885">
        <ele>1504.29</ele>
        <time>2017-08-18T10:31:13.000Z</time>
      </trkpt>
      <trkpt lat="44.83137" lon="5.37897">
        <ele>1504.41</ele>
        <time>2017-08-18T10:31:42.000Z</time>
      </trkpt>
      <trkpt lat="44.83131" lon="5.37906">
        <ele>1503.25</ele>
        <time>2017-08-18T10:32:22.000Z</time>
      </trkpt>
      <trkpt lat="44.83123" lon="5.37919">
        <ele>1501.79</ele>
        <time>2017-08-18T10:32:32.000Z</time>
      </trkpt>
      <trkpt lat="44.83118" lon="5.37935">
        <ele>1500.69</ele>
        <time>2017-08-18T10:32:42.000Z</time>
      </trkpt>
      <trkpt lat="44.83114" lon="5.37953">
        <ele>1499.85</ele>
        <time>2017-08-18T10:32:52.000Z</time>
      </trkpt>
      <trkpt lat="44.83109" lon="5.37966">
        <ele>1499.3</ele>
        <time>2017-08-18T10:33:02.000Z</time>
      </trkpt>
      <trkpt lat="44.83105" lon="5.37982">
        <ele>1498.61</ele>
        <time>2017-08-18T10:33:12.000Z</time>
      </trkpt>
      <trkpt lat="44.83095" lon="5.37985">
        <ele>1498.53</ele>
        <time>2017-08-18T10:33:22.000Z</time>
      </trkpt>
      <trkpt lat="44.83092" lon="5.37997">
        <ele>1497.63</ele>
        <time>2017-08-18T10:33:32.000Z</time>
      </trkpt>
      <trkpt lat="44.8309" lon="5.38012">
        <ele>1495.75</ele>
        <time>2017-08-18T10:34:31.000Z</time>
      </trkpt>
      <trkpt lat="44.83084" lon="5.38042">
        <ele>1488.91</ele>
        <time>2017-08-18T10:34:41.000Z</time>
      </trkpt>
      <trkpt lat="44.83078" lon="5.38055">
        <ele>1485.45</ele>
        <time>2017-08-18T10:34:51.000Z</time>
      </trkpt>
      <trkpt lat="44.83075" lon="5.38068">
        <ele>1482.43</ele>
        <time>2017-08-18T10:35:25.000Z</time>
      </trkpt>
      <trkpt lat="44.83062" lon="5.38087">
        <ele>1478.75</ele>
        <time>2017-08-18T10:35:35.000Z</time>
      </trkpt>
      <trkpt lat="44.83054" lon="5.38102">
        <ele>1477.15</ele>
        <time>2017-08-18T10:35:45.000Z</time>
      </trkpt>
      <trkpt lat="44.83051" lon="5.38114">
        <ele>1476.41</ele>
        <time>2017-08-18T10:35:55.000Z</time>
      </trkpt>
      <trkpt lat="44.83044" lon="5.38129">
        <ele>1474.86</ele>
        <time>2017-08-18T10:36:05.000Z</time>
      </trkpt>
      <trkpt lat="44.8304" lon="5.38147">
        <ele>1473.7</ele>
        <time>2017-08-18T10:36:15.000Z</time>
      </trkpt>
      <trkpt lat="44.8304" lon="5.38163">
        <ele>1473.07</ele>
        <time>2017-08-18T10:36:25.000Z</time>
      </trkpt>
      <trkpt lat="44.83034" lon="5.38175">
        <ele>1470.91</ele>
        <time>2017-08-18T10:36:35.000Z</time>
      </trkpt>
      <trkpt lat="44.83025" lon="5.38186">
        <ele>1467.44</ele>
        <time>2017-08-18T10:36:45.000Z</time>
      </trkpt>
      <trkpt lat="44.83017" lon="5.38196">
        <ele>1464.81</ele>
        <time>2017-08-18T10:36:55.000Z</time>
      </trkpt>
      <trkpt lat="44.83009" lon="5.38206">
        <ele>1462.1</ele>
        <time>2017-08-18T10:37:18.000Z</time>
      </trkpt>
      <trkpt lat="44.82998" lon="5.38204">
        <ele>1458.34</ele>
        <time>2017-08-18T10:37:29.000Z</time>
      </trkpt>
      <trkpt lat="44.82995" lon="5.38217">
        <ele>1457.9</ele>
        <time>2017-08-18T10:37:52.000Z</time>
      </trkpt>
      <trkpt lat="44.82986" lon="5.38232">
        <ele>1456.05</ele>
        <time>2017-08-18T10:38:02.000Z</time>
      </trkpt>
      <trkpt lat="44.82982" lon="5.38244">
        <ele>1455.37</ele>
        <time>2017-08-18T10:38:22.000Z</time>
      </trkpt>
      <trkpt lat="44.82981" lon="5.38257">
        <ele>1455.99</ele>
        <time>2017-08-18T10:38:33.000Z</time>
      </trkpt>
      <trkpt lat="44.8298" lon="5.38271">
        <ele>1456.37</ele>
        <time>2017-08-18T10:39:42.000Z</time>
      </trkpt>
      <trkpt lat="44.82972" lon="5.38281">
        <ele>1453.89</ele>
        <time>2017-08-18T10:40:21.000Z</time>
      </trkpt>
      <trkpt lat="44.82955" lon="5.38282">
        <ele>1446.72</ele>
        <time>2017-08-18T10:40:31.000Z</time>
      </trkpt>
      <trkpt lat="44.82944" lon="5.38282">
        <ele>1441.26</ele>
        <time>2017-08-18T10:40:44.000Z</time>
      </trkpt>
      <trkpt lat="44.82935" lon="5.3828">
        <ele>1436.42</ele>
        <time>2017-08-18T10:41:20.000Z</time>
      </trkpt>
      <trkpt lat="44.8293" lon="5.38292">
        <ele>1433.34</ele>
        <time>2017-08-18T10:43:31.000Z</time>
      </trkpt>
      <trkpt lat="44.8293" lon="5.38306">
        <ele>1432.02</ele>
        <time>2017-08-18T10:43:43.000Z</time>
      </trkpt>
      <trkpt lat="44.8293" lon="5.38319">
        <ele>1431.02</ele>
        <time>2017-08-18T10:43:53.000Z</time>
      </trkpt>
      <trkpt lat="44.82926" lon="5.38332">
        <ele>1428.3</ele>
        <time>2017-08-18T10:44:08.000Z</time>
      </trkpt>
      <trkpt lat="44.82918" lon="5.3834">
        <ele>1424.53</ele>
        <time>2017-08-18T10:44:23.000Z</time>
      </trkpt>
      <trkpt lat="44.82914" lon="5.38351">
        <ele>1422.7</ele>
        <time>2017-08-18T10:44:33.000Z</time>
      </trkpt>
      <trkpt lat="44.82905" lon="5.38357">
        <ele>1419.22</ele>
        <time>2017-08-18T10:44:43.000Z</time>
      </trkpt>
      <trkpt lat="44.82898" lon="5.38365">
        <ele>1416.45</ele>
        <time>2017-08-18T10:44:55.000Z</time>
      </trkpt>
      <trkpt lat="44.82903" lon="5.38377">
        <ele>1417.75</ele>
        <time>2017-08-18T10:55:28.000Z</time>
      </trkpt>
      <trkpt lat="44.82907" lon="5.3839">
        <ele>1418.85</ele>
        <time>2017-08-18T10:56:00.000Z</time>
      </trkpt>
      <trkpt lat="44.82912" lon="5.38404">
        <ele>1420.9</ele>
        <time>2017-08-18T10:56:10.000Z</time>
      </trkpt>
      <trkpt lat="44.82919" lon="5.38414">
        <ele>1423.52</ele>
        <time>2017-08-18T10:56:20.000Z</time>
      </trkpt>
      <trkpt lat="44.82921" lon="5.38427">
        <ele>1422.53</ele>
        <time>2017-08-18T10:56:32.000Z</time>
      </trkpt>
      <trkpt lat="44.82931" lon="5.38428">
        <ele>1427.52</ele>
        <time>2017-08-18T10:56:43.000Z</time>
      </trkpt>
      <trkpt lat="44.82936" lon="5.38439">
        <ele>1428.21</ele>
        <time>2017-08-18T10:56:53.000Z</time>
      </trkpt>
      <trkpt lat="44.82933" lon="5.38455">
        <ele>1422.94</ele>
        <time>2017-08-18T10:57:03.000Z</time>
      </trkpt>
      <trkpt lat="44.82927" lon="5.38468">
        <ele>1416.32</ele>
        <time>2017-08-18T10:57:48.000Z</time>
      </trkpt>
      <trkpt lat="44.82918" lon="5.38481">
        <ele>1408.39</ele>
        <time>2017-08-18T10:57:58.000Z</time>
      </trkpt>
      <trkpt lat="44.82913" lon="5.38495">
        <ele>1401.82</ele>
        <time>2017-08-18T10:58:08.000Z</time>
      </trkpt>
      <trkpt lat="44.82901" lon="5.38502">
        <ele>1394.03</ele>
        <time>2017-08-18T10:58:18.000Z</time>
      </trkpt>
      <trkpt lat="44.82896" lon="5.38513">
        <ele>1388.44</ele>
        <time>2017-08-18T10:58:57.000Z</time>
      </trkpt>
      <trkpt lat="44.82891" lon="5.38525">
        <ele>1382.03</ele>
        <time>2017-08-18T10:59:08.000Z</time>
      </trkpt>
      <trkpt lat="44.82901" lon="5.38527">
        <ele>1386.19</ele>
        <time>2017-08-18T11:01:39.000Z</time>
      </trkpt>
      <trkpt lat="44.82913" lon="5.38518">
        <ele>1395.18</ele>
        <time>2017-08-18T11:01:49.000Z</time>
      </trkpt>
      <trkpt lat="44.82922" lon="5.3852">
        <ele>1399.21</ele>
        <time>2017-08-18T11:02:03.000Z</time>
      </trkpt>
      <trkpt lat="44.82931" lon="5.38524">
        <ele>1402.74</ele>
        <time>2017-08-18T11:02:13.000Z</time>
      </trkpt>
      <trkpt lat="44.8294" lon="5.38528">
        <ele>1406.64</ele>
        <time>2017-08-18T11:02:28.000Z</time>
      </trkpt>
      <trkpt lat="44.82947" lon="5.38538">
        <ele>1407.31</ele>
        <time>2017-08-18T11:02:41.000Z</time>
      </trkpt>
      <trkpt lat="44.82955" lon="5.38547">
        <ele>1408.55</ele>
        <time>2017-08-18T11:02:52.000Z</time>
      </trkpt>
      <trkpt lat="44.82966" lon="5.38545">
        <ele>1414.05</ele>
        <time>2017-08-18T11:03:16.000Z</time>
      </trkpt>
      <trkpt lat="44.82983" lon="5.38552">
        <ele>1417.82</ele>
        <time>2017-08-18T11:03:26.000Z</time>
      </trkpt>
      <trkpt lat="44.82987" lon="5.38567">
        <ele>1413.36</ele>
        <time>2017-08-18T11:03:36.000Z</time>
      </trkpt>
      <trkpt lat="44.82998" lon="5.38565">
        <ele>1416.7</ele>
        <time>2017-08-18T11:04:36.000Z</time>
      </trkpt>
      <trkpt lat="44.83017" lon="5.38578">
        <ele>1412.66</ele>
        <time>2017-08-18T11:04:46.000Z</time>
      </trkpt>
      <trkpt lat="44.8303" lon="5.38578">
        <ele>1411.57</ele>
        <time>2017-08-18T11:04:56.000Z</time>
      </trkpt>
      <trkpt lat="44.83037" lon="5.38593">
        <ele>1404.9</ele>
        <time>2017-08-18T11:05:07.000Z</time>
      </trkpt>
      <trkpt lat="44.83046" lon="5.38607">
        <ele>1398.68</ele>
        <time>2017-08-18T11:05:17.000Z</time>
      </trkpt>
      <trkpt lat="44.83051" lon="5.3862">
        <ele>1393.79</ele>
        <time>2017-08-18T11:05:32.000Z</time>
      </trkpt>
      <trkpt lat="44.83053" lon="5.38633">
        <ele>1389.31</ele>
        <time>2017-08-18T11:05:45.000Z</time>
      </trkpt>
      <trkpt lat="44.83068" lon="5.38636">
        <ele>1389.29</ele>
        <time>2017-08-18T11:06:17.000Z</time>
      </trkpt>
      <trkpt lat="44.83078" lon="5.38662">
        <ele>1380.49</ele>
        <time>2017-08-18T11:06:27.000Z</time>
      </trkpt>
      <trkpt lat="44.83083" lon="5.38673">
        <ele>1375.38</ele>
        <time>2017-08-18T11:06:41.000Z</time>
      </trkpt>
      <trkpt lat="44.83091" lon="5.38681">
        <ele>1371.71</ele>
        <time>2017-08-18T11:06:51.000Z</time>
      </trkpt>
      <trkpt lat="44.83101" lon="5.38684">
        <ele>1370.88</ele>
        <time>2017-08-18T11:07:03.000Z</time>
      </trkpt>
      <trkpt lat="44.83113" lon="5.38686">
        <ele>1369.86</ele>
        <time>2017-08-18T11:07:13.000Z</time>
      </trkpt>
      <trkpt lat="44.8312" lon="5.38694">
        <ele>1365.32</ele>
        <time>2017-08-18T11:07:27.000Z</time>
      </trkpt>
      <trkpt lat="44.8313" lon="5.38698">
        <ele>1363.7</ele>
        <time>2017-08-18T11:07:37.000Z</time>
      </trkpt>
      <trkpt lat="44.83139" lon="5.38702">
        <ele>1361.91</ele>
        <time>2017-08-18T11:07:51.000Z</time>
      </trkpt>
      <trkpt lat="44.83153" lon="5.38708">
        <ele>1359.14</ele>
        <time>2017-08-18T11:08:01.000Z</time>
      </trkpt>
      <trkpt lat="44.83163" lon="5.3871">
        <ele>1358.69</ele>
        <time>2017-08-18T11:08:12.000Z</time>
      </trkpt>
      <trkpt lat="44.83173" lon="5.38714">
        <ele>1357.48</ele>
        <time>2017-08-18T11:08:22.000Z</time>
      </trkpt>
      <trkpt lat="44.83181" lon="5.38721">
        <ele>1355.1</ele>
        <time>2017-08-18T11:08:33.000Z</time>
      </trkpt>
      <trkpt lat="44.8319" lon="5.38709">
        <ele>1359.16</ele>
        <time>2017-08-18T11:08:43.000Z</time>
      </trkpt>
      <trkpt lat="44.83197" lon="5.38722">
        <ele>1354.73</ele>
        <time>2017-08-18T11:08:53.000Z</time>
      </trkpt>
      <trkpt lat="44.83201" lon="5.38707">
        <ele>1359.25</ele>
        <time>2017-08-18T11:09:03.000Z</time>
      </trkpt>
      <trkpt lat="44.83214" lon="5.38699">
        <ele>1360.9</ele>
        <time>2017-08-18T11:09:13.000Z</time>
      </trkpt>
      <trkpt lat="44.83225" lon="5.38695">
        <ele>1361.22</ele>
        <time>2017-08-18T11:09:50.000Z</time>
      </trkpt>
      <trkpt lat="44.83232" lon="5.3868">
        <ele>1364.41</ele>
        <time>2017-08-18T11:10:00.000Z</time>
      </trkpt>
      <trkpt lat="44.83248" lon="5.38697">
        <ele>1359.06</ele>
        <time>2017-08-18T11:10:10.000Z</time>
      </trkpt>
      <trkpt lat="44.83258" lon="5.38694">
        <ele>1359.59</ele>
        <time>2017-08-18T11:10:20.000Z</time>
      </trkpt>
      <trkpt lat="44.83268" lon="5.38699">
        <ele>1358.17</ele>
        <time>2017-08-18T11:10:31.000Z</time>
      </trkpt>
      <trkpt lat="44.83273" lon="5.38711">
        <ele>1355.56</ele>
        <time>2017-08-18T11:10:42.000Z</time>
      </trkpt>
      <trkpt lat="44.83293" lon="5.38705">
        <ele>1356.62</ele>
        <time>2017-08-18T11:10:52.000Z</time>
      </trkpt>
      <trkpt lat="44.83304" lon="5.38703">
        <ele>1356.94</ele>
        <time>2017-08-18T11:11:04.000Z</time>
      </trkpt>
      <trkpt lat="44.83314" lon="5.38705">
        <ele>1356.34</ele>
        <time>2017-08-18T11:11:14.000Z</time>
      </trkpt>
      <trkpt lat="44.83325" lon="5.38699">
        <ele>1357.27</ele>
        <time>2017-08-18T11:11:29.000Z</time>
      </trkpt>
      <trkpt lat="44.83337" lon="5.3869">
        <ele>1358.38</ele>
        <time>2017-08-18T11:11:39.000Z</time>
      </trkpt>
      <trkpt lat="44.83349" lon="5.38691">
        <ele>1357.15</ele>
        <time>2017-08-18T11:11:49.000Z</time>
      </trkpt>
      <trkpt lat="44.83364" lon="5.38681">
        <ele>1357.55</ele>
        <time>2017-08-18T11:11:59.000Z</time>
      </trkpt>
      <trkpt lat="44.83373" lon="5.38678">
        <ele>1356.97</ele>
        <time>2017-08-18T11:12:14.000Z</time>
      </trkpt>
      <trkpt lat="44.83383" lon="5.38679">
        <ele>1355.69</ele>
        <time>2017-08-18T11:12:25.000Z</time>
      </trkpt>
      <trkpt lat="44.83389" lon="5.38669">
        <ele>1357.48</ele>
        <time>2017-08-18T11:12:35.000Z</time>
      </trkpt>
      <trkpt lat="44.83394" lon="5.38657">
        <ele>1359.97</ele>
        <time>2017-08-18T11:12:47.000Z</time>
      </trkpt>
      <trkpt lat="44.83408" lon="5.38658">
        <ele>1358.83</ele>
        <time>2017-08-18T11:12:57.000Z</time>
      </trkpt>
      <trkpt lat="44.8342" lon="5.38659">
        <ele>1357.97</ele>
        <time>2017-08-18T11:13:07.000Z</time>
      </trkpt>
      <trkpt lat="44.83426" lon="5.38648">
        <ele>1361.1</ele>
        <time>2017-08-18T11:13:17.000Z</time>
      </trkpt>
      <trkpt lat="44.83436" lon="5.38646">
        <ele>1361.9</ele>
        <time>2017-08-18T11:13:30.000Z</time>
      </trkpt>
      <trkpt lat="44.83444" lon="5.38633">
        <ele>1366.4</ele>
        <time>2017-08-18T11:13:45.000Z</time>
      </trkpt>
      <trkpt lat="44.83453" lon="5.38634">
        <ele>1366.47</ele>
        <time>2017-08-18T11:14:13.000Z</time>
      </trkpt>
      <trkpt lat="44.83465" lon="5.38637">
        <ele>1366.3</ele>
        <time>2017-08-18T11:14:23.000Z</time>
      </trkpt>
      <trkpt lat="44.83478" lon="5.38646">
        <ele>1364.25</ele>
        <time>2017-08-18T11:14:33.000Z</time>
      </trkpt>
      <trkpt lat="44.8349" lon="5.38658">
        <ele>1361.7</ele>
        <time>2017-08-18T11:14:48.000Z</time>
      </trkpt>
      <trkpt lat="44.83498" lon="5.38649">
        <ele>1364.35</ele>
        <time>2017-08-18T11:15:04.000Z</time>
      </trkpt>
      <trkpt lat="44.83507" lon="5.38652">
        <ele>1363.8</ele>
        <time>2017-08-18T11:15:19.000Z</time>
      </trkpt>
      <trkpt lat="44.83509" lon="5.38667">
        <ele>1360.22</ele>
        <time>2017-08-18T11:16:14.000Z</time>
      </trkpt>
      <trkpt lat="44.83529" lon="5.38678">
        <ele>1359.07</ele>
        <time>2017-08-18T11:16:24.000Z</time>
      </trkpt>
      <trkpt lat="44.83538" lon="5.38684">
        <ele>1358.64</ele>
        <time>2017-08-18T11:16:34.000Z</time>
      </trkpt>
      <trkpt lat="44.83548" lon="5.3868">
        <ele>1359.7</ele>
        <time>2017-08-18T11:16:44.000Z</time>
      </trkpt>
      <trkpt lat="44.83564" lon="5.38687">
        <ele>1359.64</ele>
        <time>2017-08-18T11:16:54.000Z</time>
      </trkpt>
      <trkpt lat="44.83571" lon="5.387">
        <ele>1359.03</ele>
        <time>2017-08-18T11:17:04.000Z</time>
      </trkpt>
      <trkpt lat="44.83581" lon="5.38703">
        <ele>1359.41</ele>
        <time>2017-08-18T11:17:16.000Z</time>
      </trkpt>
      <trkpt lat="44.8359" lon="5.38709">
        <ele>1359.57</ele>
        <time>2017-08-18T11:17:26.000Z</time>
      </trkpt>
      <trkpt lat="44.83601" lon="5.38716">
        <ele>1359.69</ele>
        <time>2017-08-18T11:17:36.000Z</time>
      </trkpt>
      <trkpt lat="44.83613" lon="5.38725">
        <ele>1359.7</ele>
        <time>2017-08-18T11:17:46.000Z</time>
      </trkpt>
      <trkpt lat="44.83602" lon="5.3873">
        <ele>1359.1</ele>
        <time>2017-08-18T11:18:56.000Z</time>
      </trkpt>
      <trkpt lat="44.83586" lon="5.38733">
        <ele>1358.01</ele>
        <time>2017-08-18T11:19:06.000Z</time>
      </trkpt>
      <trkpt lat="44.83573" lon="5.38729">
        <ele>1357.33</ele>
        <time>2017-08-18T11:19:16.000Z</time>
      </trkpt>
      <trkpt lat="44.83542" lon="5.38726">
        <ele>1354.43</ele>
        <time>2017-08-18T11:19:26.000Z</time>
      </trkpt>
      <trkpt lat="44.83536" lon="5.38754">
        <ele>1349.56</ele>
        <time>2017-08-18T11:19:45.000Z</time>
      </trkpt>
      <trkpt lat="44.83513" lon="5.38736">
        <ele>1349.85</ele>
        <time>2017-08-18T11:19:55.000Z</time>
      </trkpt>
      <trkpt lat="44.83503" lon="5.38729">
        <ele>1349.89</ele>
        <time>2017-08-18T11:20:06.000Z</time>
      </trkpt>
      <trkpt lat="44.83494" lon="5.38732">
        <ele>1348.7</ele>
        <time>2017-08-18T11:20:18.000Z</time>
      </trkpt>
      <trkpt lat="44.83491" lon="5.38745">
        <ele>1346.08</ele>
        <time>2017-08-18T11:20:28.000Z</time>
      </trkpt>
      <trkpt lat="44.83483" lon="5.38748">
        <ele>1344.76</ele>
        <time>2017-08-18T11:20:44.000Z</time>
      </trkpt>
      <trkpt lat="44.83481" lon="5.3877">
        <ele>1340.01</ele>
        <time>2017-08-18T11:20:54.000Z</time>
      </trkpt>
      <trkpt lat="44.83488" lon="5.38791">
        <ele>1336.08</ele>
        <time>2017-08-18T11:21:04.000Z</time>
      </trkpt>
      <trkpt lat="44.83499" lon="5.38789">
        <ele>1337.77</ele>
        <time>2017-08-18T11:21:18.000Z</time>
      </trkpt>
      <trkpt lat="44.83509" lon="5.38799">
        <ele>1336.7</ele>
        <time>2017-08-18T11:21:28.000Z</time>
      </trkpt>
      <trkpt lat="44.8352" lon="5.38817">
        <ele>1333.67</ele>
        <time>2017-08-18T11:21:38.000Z</time>
      </trkpt>
      <trkpt lat="44.83529" lon="5.38823">
        <ele>1333.37</ele>
        <time>2017-08-18T11:21:48.000Z</time>
      </trkpt>
      <trkpt lat="44.83547" lon="5.38818">
        <ele>1337.06</ele>
        <time>2017-08-18T11:21:58.000Z</time>
      </trkpt>
      <trkpt lat="44.83558" lon="5.3882">
        <ele>1338.03</ele>
        <time>2017-08-18T11:22:08.000Z</time>
      </trkpt>
      <trkpt lat="44.83563" lon="5.38835">
        <ele>1335.32</ele>
        <time>2017-08-18T11:22:18.000Z</time>
      </trkpt>
      <trkpt lat="44.83571" lon="5.38848">
        <ele>1333.2</ele>
        <time>2017-08-18T11:22:28.000Z</time>
      </trkpt>
      <trkpt lat="44.8358" lon="5.3884">
        <ele>1336.83</ele>
        <time>2017-08-18T11:22:39.000Z</time>
      </trkpt>
      <trkpt lat="44.83591" lon="5.38852">
        <ele>1335.99</ele>
        <time>2017-08-18T11:22:49.000Z</time>
      </trkpt>
      <trkpt lat="44.83601" lon="5.38857">
        <ele>1336.69</ele>
        <time>2017-08-18T11:22:59.000Z</time>
      </trkpt>
      <trkpt lat="44.8361" lon="5.38868">
        <ele>1335.83</ele>
        <time>2017-08-18T11:23:09.000Z</time>
      </trkpt>
      <trkpt lat="44.83623" lon="5.38867">
        <ele>1338.7</ele>
        <time>2017-08-18T11:23:19.000Z</time>
      </trkpt>
      <trkpt lat="44.8363" lon="5.38881">
        <ele>1335.63</ele>
        <time>2017-08-18T11:23:29.000Z</time>
      </trkpt>
      <trkpt lat="44.83637" lon="5.38888">
        <ele>1334.77</ele>
        <time>2017-08-18T11:23:41.000Z</time>
      </trkpt>
      <trkpt lat="44.83646" lon="5.38893">
        <ele>1334.94</ele>
        <time>2017-08-18T11:23:51.000Z</time>
      </trkpt>
      <trkpt lat="44.83656" lon="5.38905">
        <ele>1333.21</ele>
        <time>2017-08-18T11:24:01.000Z</time>
      </trkpt>
      <trkpt lat="44.83665" lon="5.3891">
        <ele>1333.94</ele>
        <time>2017-08-18T11:24:11.000Z</time>
      </trkpt>
      <trkpt lat="44.83671" lon="5.3892">
        <ele>1333.67</ele>
        <time>2017-08-18T11:24:22.000Z</time>
      </trkpt>
      <trkpt lat="44.83674" lon="5.38934">
        <ele>1332.44</ele>
        <time>2017-08-18T11:24:35.000Z</time>
      </trkpt>
      <trkpt lat="44.83668" lon="5.38954">
        <ele>1329.57</ele>
        <time>2017-08-18T11:24:45.000Z</time>
      </trkpt>
      <trkpt lat="44.8366" lon="5.38959">
        <ele>1326.96</ele>
        <time>2017-08-18T11:24:55.000Z</time>
      </trkpt>
      <trkpt lat="44.83652" lon="5.38946">
        <ele>1325.77</ele>
        <time>2017-08-18T11:25:05.000Z</time>
      </trkpt>
      <trkpt lat="44.83645" lon="5.38953">
        <ele>1323.51</ele>
        <time>2017-08-18T11:26:40.000Z</time>
      </trkpt>
      <trkpt lat="44.83635" lon="5.38954">
        <ele>1321.37</ele>
        <time>2017-08-18T11:27:17.000Z</time>
      </trkpt>
      <trkpt lat="44.83612" lon="5.38953">
        <ele>1316.45</ele>
        <time>2017-08-18T11:27:27.000Z</time>
      </trkpt>
      <trkpt lat="44.83601" lon="5.38965">
        <ele>1311.89</ele>
        <time>2017-08-18T11:27:37.000Z</time>
      </trkpt>
      <trkpt lat="44.83589" lon="5.38954">
        <ele>1311.3</ele>
        <time>2017-08-18T11:27:47.000Z</time>
      </trkpt>
      <trkpt lat="44.83582" lon="5.38946">
        <ele>1310.79</ele>
        <time>2017-08-18T11:27:57.000Z</time>
      </trkpt>
      <trkpt lat="44.8357" lon="5.38939">
        <ele>1309.41</ele>
        <time>2017-08-18T11:28:07.000Z</time>
      </trkpt>
      <trkpt lat="44.83563" lon="5.38929">
        <ele>1310.26</ele>
        <time>2017-08-18T11:28:27.000Z</time>
      </trkpt>
      <trkpt lat="44.83554" lon="5.38906">
        <ele>1314.85</ele>
        <time>2017-08-18T11:28:37.000Z</time>
      </trkpt>
      <trkpt lat="44.83548" lon="5.38925">
        <ele>1308.21</ele>
        <time>2017-08-18T11:28:47.000Z</time>
      </trkpt>
      <trkpt lat="44.83542" lon="5.38935">
        <ele>1305</ele>
        <time>2017-08-18T11:29:06.000Z</time>
      </trkpt>
      <trkpt lat="44.8354" lon="5.3892">
        <ele>1307.87</ele>
        <time>2017-08-18T11:29:16.000Z</time>
      </trkpt>
      <trkpt lat="44.83551" lon="5.38926">
        <ele>1308.42</ele>
        <time>2017-08-18T11:29:32.000Z</time>
      </trkpt>
      <trkpt lat="44.83558" lon="5.38939">
        <ele>1307.35</ele>
        <time>2017-08-18T11:29:53.000Z</time>
      </trkpt>
      <trkpt lat="44.83565" lon="5.38953">
        <ele>1306.17</ele>
        <time>2017-08-18T11:30:03.000Z</time>
      </trkpt>
      <trkpt lat="44.83578" lon="5.3896">
        <ele>1307.32</ele>
        <time>2017-08-18T11:30:13.000Z</time>
      </trkpt>
      <trkpt lat="44.83588" lon="5.38961">
        <ele>1309.6</ele>
        <time>2017-08-18T11:30:23.000Z</time>
      </trkpt>
      <trkpt lat="44.83597" lon="5.38966">
        <ele>1310.75</ele>
        <time>2017-08-18T11:30:33.000Z</time>
      </trkpt>
      <trkpt lat="44.83613" lon="5.38961">
        <ele>1315.58</ele>
        <time>2017-08-18T11:30:43.000Z</time>
      </trkpt>
      <trkpt lat="44.83623" lon="5.3897">
        <ele>1316.47</ele>
        <time>2017-08-18T11:30:53.000Z</time>
      </trkpt>
      <trkpt lat="44.83627" lon="5.38982">
        <ele>1314.78</ele>
        <time>2017-08-18T11:31:04.000Z</time>
      </trkpt>
      <trkpt lat="44.83636" lon="5.38998">
        <ele>1311.44</ele>
        <time>2017-08-18T11:31:14.000Z</time>
      </trkpt>
      <trkpt lat="44.8364" lon="5.39011">
        <ele>1305.36</ele>
        <time>2017-08-18T11:31:29.000Z</time>
      </trkpt>
      <trkpt lat="44.83643" lon="5.39023">
        <ele>1298.04</ele>
        <time>2017-08-18T11:31:45.000Z</time>
      </trkpt>
      <trkpt lat="44.83649" lon="5.39035">
        <ele>1292.67</ele>
        <time>2017-08-18T11:31:55.000Z</time>
      </trkpt>
      <trkpt lat="44.83655" lon="5.39048">
        <ele>1285.89</ele>
        <time>2017-08-18T11:35:45.000Z</time>
      </trkpt>
      <trkpt lat="44.83671" lon="5.39066">
        <ele>1284.15</ele>
        <time>2017-08-18T11:35:55.000Z</time>
      </trkpt>
      <trkpt lat="44.83679" lon="5.39075">
        <ele>1282.21</ele>
        <time>2017-08-18T11:36:11.000Z</time>
      </trkpt>
      <trkpt lat="44.83695" lon="5.39076">
        <ele>1291.59</ele>
        <time>2017-08-18T11:36:21.000Z</time>
      </trkpt>
      <trkpt lat="44.83705" lon="5.39083">
        <ele>1292.47</ele>
        <time>2017-08-18T11:36:31.000Z</time>
      </trkpt>
      <trkpt lat="44.83713" lon="5.3909">
        <ele>1291.36</ele>
        <time>2017-08-18T11:36:44.000Z</time>
      </trkpt>
      <trkpt lat="44.83722" lon="5.3908">
        <ele>1304.23</ele>
        <time>2017-08-18T11:36:59.000Z</time>
      </trkpt>
      <trkpt lat="44.83732" lon="5.39092">
        <ele>1299.61</ele>
        <time>2017-08-18T11:39:59.000Z</time>
      </trkpt>
      <trkpt lat="44.83781" lon="5.39068">
        <ele>1342.3</ele>
        <time>2017-08-18T11:40:09.000Z</time>
      </trkpt>
      <trkpt lat="44.83781" lon="5.39085">
        <ele>1332.92</ele>
        <time>2017-08-18T11:40:19.000Z</time>
      </trkpt>
      <trkpt lat="44.83821" lon="5.39119">
        <ele>1317.72</ele>
        <time>2017-08-18T11:40:29.000Z</time>
      </trkpt>
      <trkpt lat="44.83828" lon="5.39136">
        <ele>1299.3</ele>
        <time>2017-08-18T11:41:02.000Z</time>
      </trkpt>
      <trkpt lat="44.83845" lon="5.39128">
        <ele>1318.08</ele>
        <time>2017-08-18T11:41:12.000Z</time>
      </trkpt>
      <trkpt lat="44.83854" lon="5.39108">
        <ele>1346.99</ele>
        <time>2017-08-18T11:41:22.000Z</time>
      </trkpt>
      <trkpt lat="44.83858" lon="5.39119">
        <ele>1334.41</ele>
        <time>2017-08-18T11:42:16.000Z</time>
      </trkpt>
      <trkpt lat="44.83861" lon="5.39135">
        <ele>1315.04</ele>
        <time>2017-08-18T11:43:14.000Z</time>
      </trkpt>
      <trkpt lat="44.83868" lon="5.39157">
        <ele>1290.72</ele>
        <time>2017-08-18T11:43:24.000Z</time>
      </trkpt>
      <trkpt lat="44.83876" lon="5.39167">
        <ele>1285.09</ele>
        <time>2017-08-18T11:46:08.000Z</time>
      </trkpt>
      <trkpt lat="44.83891" lon="5.39186">
        <ele>1278.73</ele>
        <time>2017-08-18T11:46:18.000Z</time>
      </trkpt>
      <trkpt lat="44.83899" lon="5.39206">
        <ele>1273.14</ele>
        <time>2017-08-18T11:46:28.000Z</time>
      </trkpt>
      <trkpt lat="44.83909" lon="5.3921">
        <ele>1276.38</ele>
        <time>2017-08-18T11:46:38.000Z</time>
      </trkpt>
      <trkpt lat="44.83915" lon="5.39226">
        <ele>1274.74</ele>
        <time>2017-08-18T11:46:48.000Z</time>
      </trkpt>
      <trkpt lat="44.83926" lon="5.39236">
        <ele>1276.5</ele>
        <time>2017-08-18T11:46:58.000Z</time>
      </trkpt>
      <trkpt lat="44.83929" lon="5.39254">
        <ele>1272.15</ele>
        <time>2017-08-18T11:47:08.000Z</time>
      </trkpt>
      <trkpt lat="44.83933" lon="5.39269">
        <ele>1268.53</ele>
        <time>2017-08-18T11:47:19.000Z</time>
      </trkpt>
      <trkpt lat="44.83939" lon="5.39282">
        <ele>1266.91</ele>
        <time>2017-08-18T11:47:29.000Z</time>
      </trkpt>
      <trkpt lat="44.83944" lon="5.39294">
        <ele>1265.49</ele>
        <time>2017-08-18T11:48:08.000Z</time>
      </trkpt>
      <trkpt lat="44.83958" lon="5.39319">
        <ele>1265.2</ele>
        <time>2017-08-18T11:48:18.000Z</time>
      </trkpt>
      <trkpt lat="44.83969" lon="5.39332">
        <ele>1268.36</ele>
        <time>2017-08-18T11:48:28.000Z</time>
      </trkpt>
      <trkpt lat="44.83977" lon="5.39342">
        <ele>1271.82</ele>
        <time>2017-08-18T11:48:38.000Z</time>
      </trkpt>
      <trkpt lat="44.83977" lon="5.39361">
        <ele>1271</ele>
        <time>2017-08-18T11:48:48.000Z</time>
      </trkpt>
      <trkpt lat="44.83974" lon="5.39377">
        <ele>1270.09</ele>
        <time>2017-08-18T11:49:01.000Z</time>
      </trkpt>
      <trkpt lat="44.83962" lon="5.39386">
        <ele>1264</ele>
        <time>2017-08-18T11:49:11.000Z</time>
      </trkpt>
      <trkpt lat="44.83957" lon="5.39405">
        <ele>1262.88</ele>
        <time>2017-08-18T11:49:21.000Z</time>
      </trkpt>
      <trkpt lat="44.83951" lon="5.39422">
        <ele>1261.21</ele>
        <time>2017-08-18T11:49:31.000Z</time>
      </trkpt>
      <trkpt lat="44.83943" lon="5.39432">
        <ele>1258.44</ele>
        <time>2017-08-18T11:49:41.000Z</time>
      </trkpt>
      <trkpt lat="44.83939" lon="5.39448">
        <ele>1260.43</ele>
        <time>2017-08-18T11:49:51.000Z</time>
      </trkpt>
      <trkpt lat="44.83936" lon="5.39473">
        <ele>1265.54</ele>
        <time>2017-08-18T11:50:01.000Z</time>
      </trkpt>
      <trkpt lat="44.83926" lon="5.39478">
        <ele>1262.14</ele>
        <time>2017-08-18T11:50:12.000Z</time>
      </trkpt>
      <trkpt lat="44.83913" lon="5.3948">
        <ele>1256.18</ele>
        <time>2017-08-18T11:50:22.000Z</time>
      </trkpt>
      <trkpt lat="44.83899" lon="5.39489">
        <ele>1252.05</ele>
        <time>2017-08-18T11:50:32.000Z</time>
      </trkpt>
      <trkpt lat="44.8389" lon="5.39495">
        <ele>1249.11</ele>
        <time>2017-08-18T11:50:42.000Z</time>
      </trkpt>
      <trkpt lat="44.83883" lon="5.39506">
        <ele>1248.22</ele>
        <time>2017-08-18T11:50:52.000Z</time>
      </trkpt>
      <trkpt lat="44.83876" lon="5.39522">
        <ele>1249.27</ele>
        <time>2017-08-18T11:51:02.000Z</time>
      </trkpt>
      <trkpt lat="44.83867" lon="5.39524">
        <ele>1244.95</ele>
        <time>2017-08-18T11:51:12.000Z</time>
      </trkpt>
      <trkpt lat="44.83862" lon="5.39538">
        <ele>1246.51</ele>
        <time>2017-08-18T11:51:28.000Z</time>
      </trkpt>
      <trkpt lat="44.83851" lon="5.39559">
        <ele>1246.48</ele>
        <time>2017-08-18T11:51:38.000Z</time>
      </trkpt>
      <trkpt lat="44.83851" lon="5.39575">
        <ele>1250.37</ele>
        <time>2017-08-18T11:52:01.000Z</time>
      </trkpt>
      <trkpt lat="44.83843" lon="5.39587">
        <ele>1248.83</ele>
        <time>2017-08-18T11:52:11.000Z</time>
      </trkpt>
      <trkpt lat="44.83835" lon="5.39611">
        <ele>1249.28</ele>
        <time>2017-08-18T11:52:21.000Z</time>
      </trkpt>
      <trkpt lat="44.83827" lon="5.39621">
        <ele>1247.04</ele>
        <time>2017-08-18T11:52:31.000Z</time>
      </trkpt>
      <trkpt lat="44.8382" lon="5.3963">
        <ele>1244.74</ele>
        <time>2017-08-18T11:52:42.000Z</time>
      </trkpt>
      <trkpt lat="44.83815" lon="5.39644">
        <ele>1244.5</ele>
        <time>2017-08-18T11:52:52.000Z</time>
      </trkpt>
      <trkpt lat="44.8381" lon="5.39654">
        <ele>1242.86</ele>
        <time>2017-08-18T11:53:02.000Z</time>
      </trkpt>
      <trkpt lat="44.83811" lon="5.3967">
        <ele>1246.47</ele>
        <time>2017-08-18T11:53:13.000Z</time>
      </trkpt>
      <trkpt lat="44.8381" lon="5.39691">
        <ele>1249.38</ele>
        <time>2017-08-18T11:53:23.000Z</time>
      </trkpt>
      <trkpt lat="44.83806" lon="5.39708">
        <ele>1250.38</ele>
        <time>2017-08-18T11:53:33.000Z</time>
      </trkpt>
      <trkpt lat="44.83807" lon="5.39725">
        <ele>1253.96</ele>
        <time>2017-08-18T11:53:43.000Z</time>
      </trkpt>
      <trkpt lat="44.83804" lon="5.39738">
        <ele>1255</ele>
        <time>2017-08-18T11:53:53.000Z</time>
      </trkpt>
      <trkpt lat="44.83807" lon="5.39742">
        <ele>1257.72</ele>
        <time>2017-08-18T11:54:39.000Z</time>
      </trkpt>
    </trkseg>
  </trk>
</gpx>